Time,TemperatureF,DewpointF,PressureIn,WindDirection,WindDirectionDegrees,WindSpeedMPH,WindSpeedGustMPH,Humidity,HourlyPrecipIn,Conditions,Clouds,dailyrainin,SoftwareType,DateUTC
2013-01-01 00:00:00,29.2,27.4,30.13,West,269,3.5,3.5,93,0.00,CLR,,0.01,WeatherDisplay:10.37,2013-01-01 05:00:00,
2013-01-01 00:01:00,29.2,27.4,30.12,West,265,3.5,3.5,93,0.00,RA,,0.00,WeatherDisplay:10.37,2013-01-01 05:01:00,
2013-01-01 00:05:00,29.2,27.4,30.13,West,271,2.3,2.3,93,0.00,RA,,0.00,WeatherDisplay:10.37,2013-01-01 05:05:00,
2013-01-01 00:06:00,29.2,27.4,30.13,West,271,3.5,3.5,93,0.00,RA,,0.00,WeatherDisplay:10.37,2013-01-01 05:06:00,
2013-01-01 00:10:00,29.1,27.3,30.13,WNW,289,3.5,3.5,93,0.00,CLR,,0.00,WeatherDisplay:10.37,2013-01-01 05:10:00,
2013-01-01 00:11:00,29.1,27.3,30.13,WNW,290,2.3,2.3,93,0.00,CLR,,0.00,WeatherDisplay:10.37,2013-01-01 05:11:00,
2013-01-01 00:15:00,29.1,27.3,30.13,West,273,3.5,3.5,93,0.00,CLR,,0.00,WeatherDisplay:10.37,2013-01-01 05:15:00,
2013-01-01 00:16:00,29.1,27.3,30.13,West,277,3.5,3.5,93,0.00,CLR,,0.00,WeatherDisplay:10.37,2013-01-01 05:16:00,
2013-01-01 00:20:00,29.2,27.4,30.13,WNW,298,2.3,2.3,93,0.00,CLR,,0.00,WeatherDisplay:10.37,2013-01-01 05:20:00,
2013-01-01 00:21:00,29.2,27.4,30.13,WNW,298,2.3,2.3,93,0.00,CLR,,0.00,WeatherDisplay:10.37,2013-01-01 05:21:00,
2013-01-01 00:25:00,29.2,27.4,30.13,WNW,292,1.1,1.1,93,0.00,CLR,,0.00,WeatherDisplay:10.37,2013-01-01 05:25:00,
2013-01-01 00:26:00,29.2,27.4,30.13,WNW,291,3.0,3.0,93,0.00,CLR,,0.00,WeatherDisplay:10.37,2013-01-01 05:26:00,
2013-01-01 00:31:00,29.2,27.4,30.13,WNW,298,2.3,2.3,93,0.00,CLR,,0.00,WeatherDisplay:10.37,2013-01-01 05:31:00,
2013-01-01 00:32:00,29.2,27.4,30.13,NW,313,2.3,2.3,93,0.00,CLR,,0.00,WeatherDisplay:10.37,2013-01-01 05:32:00,
2013-01-01 00:36:00,29.2,27.4,30.13,West,278,3.5,3.5,93,0.00,CLR,,0.00,WeatherDisplay:10.37,2013-01-01 05:36:00,
2013-01-01 00:37:00,29.2,27.4,30.13,WNW,292,3.5,3.5,93,0.00,CLR,,0.00,WeatherDisplay:10.37,2013-01-01 05:37:00,
2013-01-01 00:41:00,29.2,27.4,30.12,WNW,300,3.5,3.5,93,0.00,CLR,,0.00,WeatherDisplay:10.37,2013-01-01 05:41:00,
2013-01-01 00:42:00,29.1,27.3,30.12,WNW,300,1.1,1.1,93,0.00,CLR,,0.00,WeatherDisplay:10.37,2013-01-01 05:42:00,
2013-01-01 00:46:00,29.1,27.3,30.12,West,280,3.5,3.5,93,0.00,CLR,,0.00,WeatherDisplay:10.37,2013-01-01 05:46:00,
2013-01-01 00:47:00,29.1,27.3,30.12,WNW,283,3.5,3.5,93,0.00,CLR,,0.00,WeatherDisplay:10.37,2013-01-01 05:47:00,
2013-01-01 00:51:00,29.1,27.3,30.12,NW,309,3.5,3.5,93,0.00,CLR,,0.00,WeatherDisplay:10.37,2013-01-01 05:51:00,
2013-01-01 00:52:00,29.1,27.3,30.12,NW,309,2.3,2.3,93,0.00,CLR,,0.00,WeatherDisplay:10.37,2013-01-01 05:52:00,
2013-01-01 00:57:00,29.1,27.1,30.11,NW,318,4.6,4.6,92,0.00,CLR,,0.00,WeatherDisplay:10.37,2013-01-01 05:57:00,
2013-01-01 01:02:00,29.0,27.0,30.11,WNW,296,3.5,3.5,92,0.00,CLR,,0.00,WeatherDisplay:10.37,2013-01-01 06:02:00,
2013-01-01 01:07:00,29.0,27.2,30.11,NW,305,1.1,1.1,93,0.00,CLR,,0.00,WeatherDisplay:10.37,2013-01-01 06:07:00,
2013-01-01 01:12:00,29.0,27.2,30.11,NW,316,3.5,3.5,93,0.00,CLR,,0.00,WeatherDisplay:10.37,2013-01-01 06:12:00,
2013-01-01 01:13:00,29.0,27.2,30.11,WNW,296,5.0,5.0,93,0.00,CLR,,0.00,WeatherDisplay:10.37,2013-01-01 06:13:00,
2013-01-01 01:17:00,29.0,27.2,30.11,NW,311,3.5,3.5,93,0.00,CLR,,0.00,WeatherDisplay:10.37,2013-01-01 06:17:00,
2013-01-01 01:18:00,29.1,27.3,30.12,NW,311,2.3,2.3,93,0.00,CLR,,0.00,WeatherDisplay:10.37,2013-01-01 06:18:00,
2013-01-01 01:22:00,29.0,27.0,30.12,NW,318,2.3,2.3,92,0.00,CLR,,0.00,WeatherDisplay:10.37,2013-01-01 06:22:00,
2013-01-01 01:23:00,29.0,27.0,30.12,NW,316,2.3,2.3,92,0.00,CLR,,0.00,WeatherDisplay:10.37,2013-01-01 06:23:00,
2013-01-01 01:27:00,29.0,27.0,30.12,NW,308,3.5,3.5,92,0.00,CLR,,0.00,WeatherDisplay:10.37,2013-01-01 06:27:00,
2013-01-01 01:28:00,29.0,27.0,30.12,WNW,300,3.5,3.5,92,0.00,CLR,,0.00,WeatherDisplay:10.37,2013-01-01 06:28:00,
2013-01-01 01:32:00,29.0,27.0,30.12,NW,305,2.3,2.3,92,0.00,CLR,,0.00,WeatherDisplay:10.37,2013-01-01 06:32:00,
2013-01-01 01:33:00,28.9,26.9,30.12,NW,306,2.3,2.3,92,0.00,CLR,,0.00,WeatherDisplay:10.37,2013-01-01 06:33:00,
2013-01-01 01:37:00,28.9,26.9,30.12,NW,315,3.5,3.5,92,0.00,CLR,,0.00,WeatherDisplay:10.37,2013-01-01 06:37:00,
2013-01-01 01:38:00,28.9,26.9,30.12,NW,315,1.1,1.1,92,0.00,CLR,,0.00,WeatherDisplay:10.37,2013-01-01 06:38:00,
2013-01-01 01:39:00,28.9,26.9,30.12,NW,315,2.3,2.3,92,0.00,CLR,,0.00,WeatherDisplay:10.37,2013-01-01 06:39:00,
2013-01-01 01:42:00,28.9,26.9,30.12,NW,315,2.3,2.3,92,0.00,CLR,,0.00,WeatherDisplay:10.37,2013-01-01 06:42:00,
2013-01-01 01:43:00,28.8,26.8,30.12,NW,315,2.3,2.3,92,0.00,CLR,,0.00,WeatherDisplay:10.37,2013-01-01 06:43:00,
2013-01-01 01:44:00,28.8,27.0,30.12,NW,315,2.0,2.0,93,0.00,CLR,,0.00,WeatherDisplay:10.37,2013-01-01 06:44:00,
2013-01-01 01:47:00,28.8,26.8,30.12,NW,310,2.3,2.3,92,0.00,CLR,,0.00,WeatherDisplay:10.37,2013-01-01 06:47:00,
2013-01-01 01:48:00,28.9,27.1,30.12,NW,309,3.5,3.5,93,0.00,CLR,,0.00,WeatherDisplay:10.37,2013-01-01 06:48:00,
2013-01-01 01:49:00,28.9,26.9,30.12,NW,309,2.3,2.3,92,0.00,CLR,,0.00,WeatherDisplay:10.37,2013-01-01 06:49:00,
2013-01-01 01:52:00,28.9,26.9,30.11,NW,317,3.5,3.5,92,0.00,CLR,,0.00,WeatherDisplay:10.37,2013-01-01 06:52:00,
2013-01-01 01:53:00,28.9,26.9,30.11,NW,317,2.3,2.3,92,0.00,CLR,,0.00,WeatherDisplay:10.37,2013-01-01 06:53:00,
2013-01-01 01:54:00,28.8,26.8,30.11,NW,318,3.5,3.5,92,0.00,CLR,,0.00,WeatherDisplay:10.37,2013-01-01 06:54:00,
2013-01-01 01:57:00,28.8,26.8,30.11,NNW,329,2.3,2.3,92,0.00,CLR,,0.00,WeatherDisplay:10.37,2013-01-01 06:57:00,
2013-01-01 01:59:00,28.8,26.8,30.11,NNW,328,3.5,3.5,92,0.00,CLR,,0.00,WeatherDisplay:10.37,2013-01-01 06:59:00,
2013-01-01 02:03:00,28.7,26.7,30.11,NW,323,3.5,3.5,92,0.00,CLR,,0.00,WeatherDisplay:10.37,2013-01-01 07:03:00,
2013-01-01 02:04:00,28.7,26.7,30.11,NNW,327,2.3,2.3,92,0.00,CLR,,0.00,WeatherDisplay:10.37,2013-01-01 07:04:00,
2013-01-01 02:08:00,28.7,26.7,30.11,NW,322,3.5,3.5,92,0.00,CLR,,0.00,WeatherDisplay:10.37,2013-01-01 07:08:00,
2013-01-01 02:09:00,28.7,26.7,30.12,NW,323,3.5,3.5,92,0.00,CLR,,0.00,WeatherDisplay:10.37,2013-01-01 07:09:00,
2013-01-01 02:10:00,28.7,26.7,30.11,NW,321,3.5,3.5,92,0.00,CLR,,0.00,WeatherDisplay:10.37,2013-01-01 07:10:00,
2013-01-01 02:13:00,28.7,26.7,30.12,NNW,327,2.3,2.3,92,0.00,CLR,,0.00,WeatherDisplay:10.37,2013-01-01 07:13:00,
2013-01-01 02:14:00,28.7,26.7,30.12,NW,322,3.5,3.5,92,0.00,CLR,,0.00,WeatherDisplay:10.37,2013-01-01 07:14:00,
2013-01-01 02:15:00,28.7,26.7,30.12,NNW,327,3.5,3.5,92,0.00,CLR,,0.00,WeatherDisplay:10.37,2013-01-01 07:15:00,
2013-01-01 02:18:00,28.7,26.4,30.11,NNW,348,3.0,3.0,91,0.00,CLR,,0.00,WeatherDisplay:10.37,2013-01-01 07:18:00,
2013-01-01 02:19:00,28.6,26.3,30.11,NNW,333,3.5,3.5,91,0.00,CLR,,0.00,WeatherDisplay:10.37,2013-01-01 07:19:00,
2013-01-01 02:20:00,28.6,26.3,30.12,NNW,340,2.3,2.3,91,0.00,CLR,,0.00,WeatherDisplay:10.37,2013-01-01 07:20:00,
2013-01-01 02:23:00,28.6,26.3,30.12,NNW,329,3.5,3.5,91,0.00,CLR,,0.00,WeatherDisplay:10.37,2013-01-01 07:23:00,
2013-01-01 02:24:00,28.6,26.3,30.12,NNW,329,1.1,1.1,91,0.00,CLR,,0.00,WeatherDisplay:10.37,2013-01-01 07:24:00,
2013-01-01 02:25:00,28.5,26.2,30.12,NW,325,2.3,2.3,91,0.00,CLR,,0.00,WeatherDisplay:10.37,2013-01-01 07:25:00,
2013-01-01 02:28:00,28.5,26.2,30.12,North,350,3.5,3.5,91,0.00,CLR,,0.00,WeatherDisplay:10.37,2013-01-01 07:28:00,
2013-01-01 02:29:00,28.5,26.2,30.12,North,360,3.5,3.5,91,0.00,CLR,,0.00,WeatherDisplay:10.37,2013-01-01 07:29:00,
2013-01-01 02:31:00,28.5,26.2,30.12,NNW,341,2.3,2.3,91,0.00,CLR,,0.00,WeatherDisplay:10.37,2013-01-01 07:31:00,
2013-01-01 02:33:00,28.5,26.2,30.12,NNW,338,3.5,3.5,91,0.00,CLR,,0.00,WeatherDisplay:10.37,2013-01-01 07:33:00,
2013-01-01 02:34:00,28.5,25.9,30.12,NNW,334,3.5,3.5,90,0.00,CLR,,0.00,WeatherDisplay:10.37,2013-01-01 07:34:00,
2013-01-01 02:37:00,28.5,25.9,30.12,NNW,336,3.5,3.5,90,0.00,CLR,,0.00,WeatherDisplay:10.37,2013-01-01 07:37:00,
2013-01-01 02:38:00,28.4,25.8,30.12,NNW,337,3.5,3.5,90,0.00,CLR,,0.00,WeatherDisplay:10.37,2013-01-01 07:38:00,
2013-01-01 02:39:00,28.4,25.8,30.12,NNW,332,3.5,3.5,90,0.00,CLR,,0.00,WeatherDisplay:10.37,2013-01-01 07:39:00,
2013-01-01 02:40:00,28.5,25.9,30.12,NNW,348,3.5,3.5,90,0.00,CLR,,0.00,WeatherDisplay:10.37,2013-01-01 07:40:00,
2013-01-01 02:42:00,28.4,25.6,30.12,NNW,347,3.5,3.5,89,0.00,CLR,,0.00,WeatherDisplay:10.37,2013-01-01 07:42:00,
2013-01-01 02:44:00,28.4,25.6,30.12,NNW,331,3.0,3.0,89,0.00,CLR,,0.00,WeatherDisplay:10.37,2013-01-01 07:44:00,
2013-01-01 02:45:00,28.5,25.7,30.12,North,360,5.0,5.0,89,0.00,CLR,,0.00,WeatherDisplay:10.37,2013-01-01 07:45:00,
2013-01-01 02:47:00,28.4,25.6,30.12,NNW,344,3.5,3.5,89,0.00,CLR,,0.00,WeatherDisplay:10.37,2013-01-01 07:47:00,
2013-01-01 02:49:00,28.4,25.3,30.12,NNW,346,3.5,3.5,88,0.00,CLR,,0.00,WeatherDisplay:10.37,2013-01-01 07:49:00,
2013-01-01 02:50:00,28.4,25.3,30.12,NNW,344,2.0,6.0,88,0.00,CLR,,0.00,WeatherDisplay:10.37,2013-01-01 07:50:00,
2013-01-01 02:52:00,28.4,25.3,30.12,North,360,3.5,3.5,88,0.00,CLR,,0.00,WeatherDisplay:10.37,2013-01-01 07:52:00,
2013-01-01 02:54:00,28.4,25.3,30.12,NNW,347,3.5,3.5,88,0.00,CLR,,0.00,WeatherDisplay:10.37,2013-01-01 07:54:00,
2013-01-01 02:55:00,28.4,25.3,30.12,NNW,337,3.5,3.5,88,0.00,CLR,,0.00,WeatherDisplay:10.37,2013-01-01 07:55:00,
2013-01-01 02:58:00,28.3,25.2,30.12,NNW,346,4.0,4.0,88,0.00,CLR,,0.00,WeatherDisplay:10.37,2013-01-01 07:58:00,
2013-01-01 02:59:00,28.3,25.2,30.13,NNW,332,4.6,4.6,88,0.00,CLR,,0.00,WeatherDisplay:10.37,2013-01-01 07:59:00,
2013-01-01 03:00:00,28.3,25.2,30.13,NNW,332,3.5,3.5,88,0.00,CLR,,0.00,WeatherDisplay:10.37,2013-01-01 08:00:00,
2013-01-01 03:03:00,28.3,24.9,30.13,NNW,327,3.5,3.5,87,0.00,CLR,,0.00,WeatherDisplay:10.37,2013-01-01 08:03:00,
2013-01-01 03:05:00,28.3,24.9,30.13,NNW,333,3.5,3.5,87,0.00,CLR,,0.00,WeatherDisplay:10.37,2013-01-01 08:05:00,
2013-01-01 03:08:00,28.3,24.9,30.13,NW,316,5.8,5.8,87,0.00,CLR,,0.00,WeatherDisplay:10.37,2013-01-01 08:08:00,
2013-01-01 03:10:00,28.3,24.6,30.13,North,5,6.9,6.9,86,0.00,CLR,,0.00,WeatherDisplay:10.37,2013-01-01 08:10:00,
2013-01-01 03:11:00,28.3,24.6,30.13,NW,317,6.9,6.9,86,0.00,CLR,,0.00,WeatherDisplay:10.37,2013-01-01 08:11:00,
2013-01-01 03:14:00,28.3,24.6,30.14,NNW,335,6.9,6.9,86,0.00,CLR,,0.00,WeatherDisplay:10.37,2013-01-01 08:14:00,
2013-01-01 03:15:00,28.3,24.6,30.13,NW,307,6.9,6.9,86,0.00,CLR,,0.00,WeatherDisplay:10.37,2013-01-01 08:15:00,
2013-01-01 03:16:00,28.3,24.4,30.14,NNW,348,8.1,8.1,85,0.00,CLR,,0.00,WeatherDisplay:10.37,2013-01-01 08:16:00,
2013-01-01 03:19:00,28.3,24.6,30.14,North,9,3.5,3.5,86,0.00,CLR,,0.00,WeatherDisplay:10.37,2013-01-01 08:19:00,
2013-01-01 03:20:00,28.2,24.6,30.14,North,350,2.3,2.3,86,0.00,CLR,,0.00,WeatherDisplay:10.37,2013-01-01 08:20:00,
2013-01-01 03:21:00,28.2,24.6,30.14,NNW,329,2.3,2.3,86,0.00,CLR,,0.00,WeatherDisplay:10.37,2013-01-01 08:21:00,
2013-01-01 03:24:00,28.1,24.5,30.14,NNW,339,3.5,3.5,86,0.00,CLR,,0.00,WeatherDisplay:10.37,2013-01-01 08:24:00,
2013-01-01 03:25:00,28.1,24.7,30.14,NW,326,3.5,3.5,87,0.00,CLR,,0.00,WeatherDisplay:10.37,2013-01-01 08:25:00,
2013-01-01 03:26:00,28.1,24.7,30.14,NNW,341,3.5,3.5,87,0.00,CLR,,0.00,WeatherDisplay:10.37,2013-01-01 08:26:00,
2013-01-01 03:29:00,28.1,24.7,30.14,NNW,329,3.5,3.5,87,0.00,CLR,,0.00,WeatherDisplay:10.37,2013-01-01 08:29:00,
2013-01-01 03:30:00,28.0,24.6,30.14,NNW,342,3.5,3.5,87,0.00,CLR,,0.00,WeatherDisplay:10.37,2013-01-01 08:30:00,
2013-01-01 03:31:00,28.0,24.6,30.14,NNW,341,3.5,3.5,87,0.00,CLR,,0.00,WeatherDisplay:10.37,2013-01-01 08:31:00,
2013-01-01 03:34:00,27.9,24.5,30.14,NW,325,3.5,3.5,87,0.00,CLR,,0.00,WeatherDisplay:10.37,2013-01-01 08:34:00,
2013-01-01 03:35:00,28.0,24.9,30.15,NNW,336,3.5,3.5,88,0.00,CLR,,0.00,WeatherDisplay:10.37,2013-01-01 08:35:00,
2013-01-01 03:36:00,27.9,24.8,30.15,NNW,329,3.5,3.5,88,0.00,CLR,,0.00,WeatherDisplay:10.37,2013-01-01 08:36:00,
2013-01-01 03:37:00,27.9,24.8,30.15,NNW,331,3.5,3.5,88,0.00,CLR,,0.00,WeatherDisplay:10.37,2013-01-01 08:37:00,
2013-01-01 03:39:00,27.9,24.8,30.15,NNW,330,4.6,4.6,88,0.00,CLR,,0.00,WeatherDisplay:10.37,2013-01-01 08:39:00,
2013-01-01 03:40:00,27.9,24.8,30.15,NW,324,3.5,3.5,88,0.00,CLR,,0.00,WeatherDisplay:10.37,2013-01-01 08:40:00,
2013-01-01 03:42:00,27.9,24.8,30.15,NNW,334,3.5,3.5,88,0.00,CLR,,0.00,WeatherDisplay:10.37,2013-01-01 08:42:00,
2013-01-01 03:43:00,27.9,24.8,30.15,NNW,329,3.5,3.5,88,0.00,CLR,,0.00,WeatherDisplay:10.37,2013-01-01 08:43:00,
2013-01-01 03:44:00,27.9,24.8,30.15,NW,323,3.5,3.5,88,0.00,CLR,,0.00,WeatherDisplay:10.37,2013-01-01 08:44:00,
2013-01-01 03:46:00,27.9,24.8,30.15,NNW,339,3.5,3.5,88,0.00,CLR,,0.00,WeatherDisplay:10.37,2013-01-01 08:46:00,
2013-01-01 03:47:00,27.9,24.5,30.15,NNW,336,2.3,2.3,87,0.00,CLR,,0.00,WeatherDisplay:10.37,2013-01-01 08:47:00,
2013-01-01 03:48:00,27.9,24.8,30.15,North,355,3.5,3.5,88,0.00,CLR,,0.00,WeatherDisplay:10.37,2013-01-01 08:48:00,
2013-01-01 03:49:00,27.9,24.5,30.14,NNW,337,3.5,3.5,87,0.00,CLR,,0.00,WeatherDisplay:10.37,2013-01-01 08:49:00,
2013-01-01 03:51:00,27.9,24.8,30.14,NNW,333,1.1,1.1,88,0.00,CLR,,0.00,WeatherDisplay:10.37,2013-01-01 08:51:00,
2013-01-01 03:52:00,27.9,24.8,30.14,NNW,341,2.3,2.3,88,0.00,CLR,,0.00,WeatherDisplay:10.37,2013-01-01 08:52:00,
2013-01-01 03:53:00,27.9,24.5,30.14,NNW,338,3.5,3.5,87,0.00,CLR,,0.00,WeatherDisplay:10.37,2013-01-01 08:53:00,
2013-01-01 03:54:00,27.9,24.5,30.14,NNW,331,3.5,3.5,87,0.00,CLR,,0.00,WeatherDisplay:10.37,2013-01-01 08:54:00,
2013-01-01 03:56:00,27.9,24.8,30.14,NNW,332,3.5,3.5,88,0.00,CLR,,0.00,WeatherDisplay:10.37,2013-01-01 08:56:00,
2013-01-01 03:57:00,27.9,24.8,30.14,NNW,331,3.5,3.5,88,0.00,CLR,,0.00,WeatherDisplay:10.37,2013-01-01 08:57:00,
2013-01-01 03:58:00,27.9,24.8,30.15,NW,317,3.5,3.5,88,0.00,CLR,,0.00,WeatherDisplay:10.37,2013-01-01 08:58:00,
2013-01-01 03:59:00,27.8,24.7,30.14,NNW,334,3.5,3.5,88,0.00,CLR,,0.00,WeatherDisplay:10.37,2013-01-01 08:59:00,
2013-01-01 04:01:00,27.8,24.7,30.15,NNW,328,3.5,3.5,88,0.00,CLR,,0.00,WeatherDisplay:10.37,2013-01-01 09:01:00,
2013-01-01 04:03:00,27.8,24.7,30.15,NW,325,2.3,2.3,88,0.00,CLR,,0.00,WeatherDisplay:10.37,2013-01-01 09:03:00,
2013-01-01 04:04:00,27.8,24.7,30.15,NNW,335,2.3,2.3,88,0.00,CLR,,0.00,WeatherDisplay:10.37,2013-01-01 09:04:00,
2013-01-01 04:06:00,27.7,24.6,30.15,NNW,333,3.5,3.5,88,0.00,CLR,,0.00,WeatherDisplay:10.37,2013-01-01 09:06:00,
2013-01-01 04:08:00,27.8,24.7,30.15,NNW,340,3.0,3.0,88,0.00,CLR,,0.00,WeatherDisplay:10.37,2013-01-01 09:08:00,
2013-01-01 04:10:00,27.7,24.6,30.15,NNW,329,1.0,3.0,88,0.00,CLR,,0.00,WeatherDisplay:10.37,2013-01-01 09:10:00,
2013-01-01 04:11:00,27.8,24.4,30.14,NNW,338,3.5,3.5,87,0.00,CLR,,0.00,WeatherDisplay:10.37,2013-01-01 09:11:00,
2013-01-01 04:13:00,27.7,24.3,30.14,NNW,334,1.1,1.1,87,0.00,CLR,,0.00,WeatherDisplay:10.37,2013-01-01 09:13:00,
2013-01-01 04:15:00,27.7,24.3,30.15,NNW,338,3.5,3.5,87,0.00,CLR,,0.00,WeatherDisplay:10.37,2013-01-01 09:15:00,
2013-01-01 04:17:00,27.7,24.3,30.14,North,355,1.1,1.1,87,0.00,CLR,,0.00,WeatherDisplay:10.37,2013-01-01 09:17:00,
2013-01-01 04:18:00,27.7,24.3,30.14,NNW,346,3.5,3.5,87,0.00,CLR,,0.00,WeatherDisplay:10.37,2013-01-01 09:18:00,
2013-01-01 04:20:00,27.7,24.3,30.14,North,11,3.5,3.5,87,0.00,CLR,,0.00,WeatherDisplay:10.37,2013-01-01 09:20:00,
2013-01-01 04:22:00,27.7,24.3,30.14,North,9,1.1,1.1,87,0.00,CLR,,0.00,WeatherDisplay:10.37,2013-01-01 09:22:00,
2013-01-01 04:23:00,27.7,24.3,30.13,NNE,13,2.3,2.3,87,0.00,CLR,,0.00,WeatherDisplay:10.37,2013-01-01 09:23:00,
2013-01-01 04:24:00,27.7,24.3,30.13,NNE,13,2.3,2.3,87,0.00,CLR,,0.00,WeatherDisplay:10.37,2013-01-01 09:24:00,
2013-01-01 04:25:00,27.7,24.3,30.13,NNE,24,2.3,2.3,87,0.00,CLR,,0.00,WeatherDisplay:10.37,2013-01-01 09:25:00,
2013-01-01 04:27:00,27.6,24.2,30.13,North,351,2.3,2.3,87,0.00,CLR,,0.00,WeatherDisplay:10.37,2013-01-01 09:27:00,
2013-01-01 04:29:00,27.6,24.2,30.13,NNW,344,2.3,2.3,87,0.00,CLR,,0.00,WeatherDisplay:10.37,2013-01-01 09:29:00,
2013-01-01 04:30:00,27.6,24.2,30.13,North,360,1.1,1.1,87,0.00,CLR,,0.00,WeatherDisplay:10.37,2013-01-01 09:30:00,
2013-01-01 04:32:00,27.6,24.2,30.13,North,355,3.5,3.5,87,0.00,CLR,,0.00,WeatherDisplay:10.37,2013-01-01 09:32:00,
2013-01-01 04:34:00,27.6,24.2,30.13,North,5,2.3,2.3,87,0.00,CLR,,0.00,WeatherDisplay:10.37,2013-01-01 09:34:00,
2013-01-01 04:36:00,27.6,24.2,30.13,North,5,2.3,2.3,87,0.00,CLR,,0.00,WeatherDisplay:10.37,2013-01-01 09:36:00,
2013-01-01 04:37:00,27.5,24.1,30.13,North,355,2.3,2.3,87,0.00,CLR,,0.00,WeatherDisplay:10.37,2013-01-01 09:37:00,
2013-01-01 04:39:00,27.5,24.1,30.13,NNW,348,1.1,1.1,87,0.00,CLR,,0.00,WeatherDisplay:10.37,2013-01-01 09:39:00,
2013-01-01 04:41:00,27.5,24.4,30.14,NNW,340,1.1,1.1,88,0.00,CLR,,0.00,WeatherDisplay:10.37,2013-01-01 09:41:00,
2013-01-01 04:42:00,27.5,24.4,30.14,NNW,340,2.3,2.3,88,0.00,CLR,,0.00,WeatherDisplay:10.37,2013-01-01 09:42:00,
2013-01-01 04:44:00,27.5,24.4,30.14,NNW,340,1.1,1.1,88,0.00,CLR,,0.00,WeatherDisplay:10.37,2013-01-01 09:44:00,
2013-01-01 04:46:00,27.5,24.4,30.14,NNW,340,1.1,1.1,88,0.00,CLR,,0.00,WeatherDisplay:10.37,2013-01-01 09:46:00,
2013-01-01 04:47:00,27.5,24.4,30.14,NNW,340,1.1,1.1,88,0.00,CLR,,0.00,WeatherDisplay:10.37,2013-01-01 09:47:00,
2013-01-01 04:49:00,27.4,24.6,30.14,NNW,340,1.1,0.0,89,0.00,CLR,,0.00,WeatherDisplay:10.37,2013-01-01 09:49:00,
2013-01-01 04:51:00,27.4,24.3,30.14,NNW,339,1.1,1.1,88,0.00,CLR,,0.00,WeatherDisplay:10.37,2013-01-01 09:51:00,
2013-01-01 04:53:00,27.4,24.3,30.14,NNW,339,1.0,0.0,88,0.00,CLR,,0.00,WeatherDisplay:10.37,2013-01-01 09:53:00,
2013-01-01 04:54:00,27.4,24.3,30.14,NNW,339,1.1,1.1,88,0.00,CLR,,0.00,WeatherDisplay:10.37,2013-01-01 09:54:00,
2013-01-01 04:56:00,27.4,24.3,30.14,NW,324,2.3,2.3,88,0.00,CLR,,0.00,WeatherDisplay:10.37,2013-01-01 09:56:00,
2013-01-01 04:58:00,27.4,24.3,30.13,NW,325,1.1,1.1,88,0.00,CLR,,0.00,WeatherDisplay:10.37,2013-01-01 09:58:00,
2013-01-01 04:59:00,27.4,24.3,30.13,NNW,338,1.1,1.1,88,0.00,CLR,,0.00,WeatherDisplay:10.37,2013-01-01 09:59:00,
2013-01-01 05:00:00,27.4,24.3,30.13,NNW,338,1.1,1.1,88,0.00,CLR,,0.00,WeatherDisplay:10.37,2013-01-01 10:00:00,
2013-01-01 05:01:00,27.4,24.3,30.13,NNW,339,1.1,1.1,88,0.00,CLR,,0.00,WeatherDisplay:10.37,2013-01-01 10:01:00,
2013-01-01 05:03:00,27.4,24.3,30.13,NNW,339,2.3,2.3,88,0.00,CLR,,0.00,WeatherDisplay:10.37,2013-01-01 10:03:00,
2013-01-01 05:05:00,27.4,24.3,30.13,NNW,339,0.0,0.0,88,0.00,CLR,,0.00,WeatherDisplay:10.37,2013-01-01 10:05:00,
2013-01-01 05:06:00,27.4,24.3,30.13,NNW,338,0.0,0.3,88,0.00,CLR,,0.00,WeatherDisplay:10.37,2013-01-01 10:06:00,
2013-01-01 05:09:00,27.4,24.3,30.13,NNW,338,1.1,0.0,88,0.00,CLR,,0.00,WeatherDisplay:10.37,2013-01-01 10:09:00,
2013-01-01 05:10:00,27.4,24.3,30.13,NNW,338,0.0,1.0,88,0.00,CLR,,0.00,WeatherDisplay:10.37,2013-01-01 10:10:00,
2013-01-01 05:11:00,27.4,24.3,30.13,NNW,338,0.0,0.0,88,0.00,CLR,,0.00,WeatherDisplay:10.37,2013-01-01 10:11:00,
2013-01-01 05:14:00,27.3,24.2,30.13,NNW,338,0.0,0.0,88,0.00,CLR,,0.00,WeatherDisplay:10.37,2013-01-01 10:14:00,
2013-01-01 05:15:00,27.3,24.2,30.13,NNW,338,1.1,0.0,88,0.00,CLR,,0.00,WeatherDisplay:10.37,2013-01-01 10:15:00,
2013-01-01 05:16:00,27.3,24.2,30.13,NNW,338,0.0,0.0,88,0.00,CLR,,0.00,WeatherDisplay:10.37,2013-01-01 10:16:00,
2013-01-01 05:17:00,27.3,24.2,30.13,NNW,338,0.0,0.0,88,0.00,CLR,,0.00,WeatherDisplay:10.37,2013-01-01 10:17:00,
2013-01-01 05:19:00,27.3,24.2,30.13,NNW,338,0.0,0.0,88,0.00,CLR,,0.00,WeatherDisplay:10.37,2013-01-01 10:19:00,
2013-01-01 05:20:00,27.3,24.2,30.14,NNW,338,0.0,0.0,88,0.00,CLR,,0.00,WeatherDisplay:10.37,2013-01-01 10:20:00,
2013-01-01 05:21:00,27.3,24.2,30.14,NNW,338,0.0,0.0,88,0.00,CLR,,0.00,WeatherDisplay:10.37,2013-01-01 10:21:00,
2013-01-01 05:22:00,27.2,24.1,30.14,NNW,338,0.0,0.0,88,0.00,CLR,,0.00,WeatherDisplay:10.37,2013-01-01 10:22:00,
2013-01-01 05:24:00,27.2,24.1,30.14,NNW,338,0.0,0.0,88,0.00,CLR,,0.00,WeatherDisplay:10.37,2013-01-01 10:24:00,
2013-01-01 05:25:00,27.2,24.1,30.14,NNW,338,0.0,0.0,88,0.00,CLR,,0.00,WeatherDisplay:10.37,2013-01-01 10:25:00,
2013-01-01 05:26:00,27.2,24.1,30.14,NNW,338,0.0,0.0,88,0.00,CLR,,0.00,WeatherDisplay:10.37,2013-01-01 10:26:00,
2013-01-01 05:27:00,27.2,24.1,30.14,NNW,338,0.0,0.0,88,0.00,CLR,,0.00,WeatherDisplay:10.37,2013-01-01 10:27:00,
2013-01-01 05:29:00,27.2,24.1,30.14,NNW,338,1.1,1.1,88,0.00,CLR,,0.00,WeatherDisplay:10.37,2013-01-01 10:29:00,
2013-01-01 05:31:00,27.2,24.1,30.14,NNW,338,0.0,0.0,88,0.00,CLR,,0.00,WeatherDisplay:10.37,2013-01-01 10:31:00,
2013-01-01 05:32:00,27.2,24.1,30.14,NNW,338,0.0,0.0,88,0.00,CLR,,0.00,WeatherDisplay:10.37,2013-01-01 10:32:00,
2013-01-01 05:34:00,27.2,24.1,30.14,NNW,338,0.0,0.0,88,0.00,CLR,,0.00,WeatherDisplay:10.37,2013-01-01 10:34:00,
2013-01-01 05:36:00,27.1,24.0,30.14,NNW,338,0.0,0.0,88,0.00,CLR,,0.00,WeatherDisplay:10.37,2013-01-01 10:36:00,
2013-01-01 05:37:00,27.1,24.0,30.13,NNW,338,0.0,0.0,88,0.00,CLR,,0.00,WeatherDisplay:10.37,2013-01-01 10:37:00,
2013-01-01 05:39:00,27.1,23.7,30.13,NNW,331,2.3,2.3,87,0.00,CLR,,0.00,WeatherDisplay:10.37,2013-01-01 10:39:00,
2013-01-01 05:41:00,27.1,24.0,30.14,NNW,331,0.0,0.0,88,0.00,CLR,,0.00,WeatherDisplay:10.37,2013-01-01 10:41:00,
2013-01-01 05:42:00,27.1,24.0,30.14,NNW,330,1.1,1.1,88,0.00,CLR,,0.00,WeatherDisplay:10.37,2013-01-01 10:42:00,
2013-01-01 05:44:00,27.1,24.0,30.14,NNW,330,0.0,0.0,88,0.00,CLR,,0.00,WeatherDisplay:10.37,2013-01-01 10:44:00,
2013-01-01 05:46:00,27.1,24.0,30.14,NNW,330,0.0,0.0,88,0.00,CLR,,0.00,WeatherDisplay:10.37,2013-01-01 10:46:00,
2013-01-01 05:47:00,27.0,23.9,30.15,NNW,330,0.0,0.0,88,0.00,CLR,,0.00,WeatherDisplay:10.37,2013-01-01 10:47:00,
2013-01-01 05:49:00,27.0,24.2,30.15,NNW,330,0.0,0.0,89,0.00,CLR,,0.00,WeatherDisplay:10.37,2013-01-01 10:49:00,
2013-01-01 05:51:00,26.9,23.8,30.15,NNW,330,0.0,0.0,88,0.00,CLR,,0.00,WeatherDisplay:10.37,2013-01-01 10:51:00,
2013-01-01 05:53:00,26.9,24.1,30.15,NNW,330,0.0,0.0,89,0.00,CLR,,0.00,WeatherDisplay:10.37,2013-01-01 10:53:00,
2013-01-01 05:55:00,26.8,24.0,30.14,NNW,330,0.0,0.0,89,0.00,CLR,,0.00,WeatherDisplay:10.37,2013-01-01 10:55:00,
2013-01-01 05:56:00,26.8,24.0,30.14,NNW,330,0.0,0.0,89,0.00,CLR,,0.00,WeatherDisplay:10.37,2013-01-01 10:56:00,
2013-01-01 05:57:00,26.8,24.0,30.14,NNW,330,0.0,0.0,89,0.00,CLR,,0.00,WeatherDisplay:10.37,2013-01-01 10:57:00,
2013-01-01 05:58:00,26.7,24.2,30.14,NNW,330,0.0,0.0,90,0.00,CLR,,0.00,WeatherDisplay:10.37,2013-01-01 10:58:00,
2013-01-01 06:00:00,26.7,23.9,30.14,NNW,330,0.0,0.0,89,0.00,CLR,,0.00,WeatherDisplay:10.37,2013-01-01 11:00:00,
2013-01-01 06:01:00,26.7,23.9,30.14,NNW,330,0.0,0.0,89,0.00,CLR,,0.00,WeatherDisplay:10.37,2013-01-01 11:01:00,
2013-01-01 06:02:00,26.7,23.9,30.14,NNW,330,0.0,0.0,89,0.00,CLR,,0.00,WeatherDisplay:10.37,2013-01-01 11:02:00,
2013-01-01 06:03:00,26.7,23.9,30.14,NNW,330,0.0,0.0,89,0.00,CLR,,0.00,WeatherDisplay:10.37,2013-01-01 11:03:00,
2013-01-01 06:05:00,26.8,24.0,30.14,NNW,330,0.0,0.0,89,0.00,CLR,,0.00,WeatherDisplay:10.37,2013-01-01 11:05:00,
2013-01-01 06:06:00,26.8,24.0,30.14,NNW,330,0.0,0.0,89,0.00,CLR,,0.00,WeatherDisplay:10.37,2013-01-01 11:06:00,
2013-01-01 06:07:00,26.8,24.0,30.14,NNW,330,0.0,0.0,89,0.00,CLR,,0.00,WeatherDisplay:10.37,2013-01-01 11:07:00,
2013-01-01 06:08:00,26.8,24.0,30.14,NNW,330,0.0,0.0,89,0.00,CLR,,0.00,WeatherDisplay:10.37,2013-01-01 11:08:00,
2013-01-01 06:10:00,26.9,24.1,30.14,NNW,330,0.0,0.0,89,0.00,CLR,,0.00,WeatherDisplay:10.37,2013-01-01 11:10:00,
2013-01-01 06:11:00,26.9,24.1,30.14,NNW,330,0.0,0.0,89,0.00,CLR,,0.00,WeatherDisplay:10.37,2013-01-01 11:11:00,
2013-01-01 06:12:00,26.9,24.1,30.14,NNW,330,0.0,0.0,89,0.00,CLR,,0.00,WeatherDisplay:10.37,2013-01-01 11:12:00,
2013-01-01 06:13:00,26.9,24.1,30.14,NNW,330,0.0,0.0,89,0.00,CLR,,0.00,WeatherDisplay:10.37,2013-01-01 11:13:00,
2013-01-01 06:16:00,27.0,24.2,30.14,NNW,330,0.0,0.0,89,0.00,CLR,,0.00,WeatherDisplay:10.37,2013-01-01 11:16:00,
2013-01-01 06:17:00,27.0,24.2,30.14,NNW,330,0.0,0.0,89,0.00,CLR,,0.00,WeatherDisplay:10.37,2013-01-01 11:17:00,
2013-01-01 06:18:00,27.0,24.2,30.14,NNW,330,0.0,0.0,89,0.00,CLR,,0.00,WeatherDisplay:10.37,2013-01-01 11:18:00,
2013-01-01 06:21:00,27.0,24.2,30.14,NNW,328,1.1,1.3,89,0.00,CLR,,0.00,WeatherDisplay:10.37,2013-01-01 11:21:00,
2013-01-01 06:22:00,27.0,24.2,30.14,NNW,328,1.1,1.1,89,0.00,CLR,,0.00,WeatherDisplay:10.37,2013-01-01 11:22:00,
2013-01-01 06:23:00,27.0,23.9,30.14,NNW,328,1.1,1.1,88,0.00,CLR,,0.00,WeatherDisplay:10.37,2013-01-01 11:23:00,
2013-01-01 06:26:00,26.9,23.8,30.14,NW,316,2.3,2.3,88,0.00,CLR,,0.00,WeatherDisplay:10.37,2013-01-01 11:26:00,
2013-01-01 06:27:00,26.9,23.5,30.14,NW,319,3.5,3.5,87,0.00,CLR,,0.00,WeatherDisplay:10.37,2013-01-01 11:27:00,
2013-01-01 06:28:00,26.9,23.5,30.14,NW,321,2.3,2.3,87,0.00,CLR,,0.00,WeatherDisplay:10.37,2013-01-01 11:28:00,
2013-01-01 06:31:00,26.6,23.3,30.15,NW,321,3.5,3.5,87,0.00,CLR,,0.00,WeatherDisplay:10.37,2013-01-01 11:31:00,
2013-01-01 06:32:00,26.5,23.2,30.15,NW,322,2.3,2.3,87,0.00,CLR,,0.00,WeatherDisplay:10.37,2013-01-01 11:32:00,
2013-01-01 06:33:00,26.5,23.2,30.15,NW,320,2.3,2.3,87,0.00,CLR,,0.00,WeatherDisplay:10.37,2013-01-01 11:33:00,
2013-01-01 06:36:00,26.3,23.2,30.16,NW,314,2.3,2.3,88,0.00,CLR,,0.00,WeatherDisplay:10.37,2013-01-01 11:36:00,
2013-01-01 06:37:00,26.3,23.2,30.16,WNW,303,2.3,2.3,88,0.00,CLR,,0.00,WeatherDisplay:10.37,2013-01-01 11:37:00,
2013-01-01 06:38:00,26.3,23.2,30.15,WNW,303,2.3,2.3,88,0.00,CLR,,0.00,WeatherDisplay:10.37,2013-01-01 11:38:00,
2013-01-01 06:39:00,26.3,23.2,30.16,WNW,303,2.3,2.3,88,0.00,CLR,,0.00,WeatherDisplay:10.37,2013-01-01 11:39:00,
2013-01-01 06:41:00,26.3,23.5,30.16,WNW,303,0.0,0.0,89,0.00,CLR,,0.00,WeatherDisplay:10.37,2013-01-01 11:41:00,
2013-01-01 06:43:00,26.4,23.6,30.16,WNW,303,1.1,1.1,89,0.00,CLR,,0.00,WeatherDisplay:10.37,2013-01-01 11:43:00,
2013-01-01 06:44:00,26.3,23.5,30.16,WNW,303,1.1,0.0,89,0.00,CLR,,0.00,WeatherDisplay:10.37,2013-01-01 11:44:00,
2013-01-01 06:46:00,26.3,23.5,30.16,WNW,303,0.0,0.0,89,0.00,CLR,,0.00,WeatherDisplay:10.37,2013-01-01 11:46:00,
2013-01-01 06:48:00,26.3,23.5,30.16,WNW,303,0.0,0.0,89,0.00,CLR,,0.00,WeatherDisplay:10.37,2013-01-01 11:48:00,
2013-01-01 06:49:00,26.2,23.4,30.16,WNW,302,0.0,0.0,89,0.00,CLR,,0.00,WeatherDisplay:10.37,2013-01-01 11:49:00,
2013-01-01 06:51:00,26.2,23.4,30.17,WNW,303,0.0,0.0,89,0.00,CLR,,0.00,WeatherDisplay:10.37,2013-01-01 11:51:00,
2013-01-01 06:53:00,26.2,23.4,30.17,WNW,303,1.1,1.1,89,0.00,CLR,,0.00,WeatherDisplay:10.37,2013-01-01 11:53:00,
2013-01-01 06:54:00,26.2,23.4,30.17,WNW,302,2.3,2.3,89,0.00,CLR,,0.00,WeatherDisplay:10.37,2013-01-01 11:54:00,
2013-01-01 06:56:00,26.2,23.4,30.17,WNW,302,2.3,2.3,89,0.00,CLR,,0.00,WeatherDisplay:10.37,2013-01-01 11:56:00,
2013-01-01 06:58:00,26.3,23.5,30.17,WNW,300,2.3,2.3,89,0.00,CLR,,0.00,WeatherDisplay:10.37,2013-01-01 11:58:00,
2013-01-01 06:59:00,26.4,23.6,30.17,WNW,300,1.1,1.1,89,0.00,CLR,,0.00,WeatherDisplay:10.37,2013-01-01 11:59:00,
2013-01-01 07:01:00,26.5,23.7,30.17,WNW,300,1.1,1.1,89,0.00,CLR,,0.00,WeatherDisplay:10.37,2013-01-01 12:01:00,
2013-01-01 07:03:00,26.5,23.7,30.17,WNW,300,2.3,2.3,89,0.00,CLR,,0.00,WeatherDisplay:10.37,2013-01-01 12:03:00,
2013-01-01 07:04:00,26.6,23.8,30.17,WNW,300,2.3,2.3,89,0.00,CLR,,0.00,WeatherDisplay:10.37,2013-01-01 12:04:00,
2013-01-01 07:07:00,26.6,23.8,30.17,WNW,299,3.5,3.5,89,0.00,CLR,,0.00,WeatherDisplay:10.37,2013-01-01 12:07:00,
2013-01-01 07:08:00,26.7,23.9,30.17,WNW,297,3.5,3.5,89,0.00,CLR,,0.00,WeatherDisplay:10.37,2013-01-01 12:08:00,
2013-01-01 07:10:00,26.8,24.0,30.17,WNW,303,3.5,3.5,89,0.00,CLR,,0.00,WeatherDisplay:10.37,2013-01-01 12:10:00,
2013-01-01 07:12:00,26.9,23.8,30.17,WNW,301,1.1,1.1,88,0.00,CLR,,0.00,WeatherDisplay:10.37,2013-01-01 12:12:00,
2013-01-01 07:13:00,26.9,23.8,30.17,WNW,297,2.3,2.3,88,0.00,CLR,,0.00,WeatherDisplay:10.37,2013-01-01 12:13:00,
2013-01-01 07:14:00,26.9,23.8,30.17,WNW,297,2.3,2.3,88,0.00,CLR,,0.00,WeatherDisplay:10.37,2013-01-01 12:14:00,
2013-01-01 07:15:00,26.9,24.1,30.17,NW,309,2.3,2.3,89,0.00,CLR,,0.00,WeatherDisplay:10.37,2013-01-01 12:15:00,
2013-01-01 07:17:00,26.9,23.8,30.17,WNW,298,1.1,1.1,88,0.00,CLR,,0.00,WeatherDisplay:10.37,2013-01-01 12:17:00,
2013-01-01 07:18:00,26.9,23.8,30.17,WNW,298,1.1,1.1,88,0.00,CLR,,0.00,WeatherDisplay:10.37,2013-01-01 12:18:00,
2013-01-01 07:19:00,26.9,23.8,30.17,WNW,298,1.1,1.1,88,0.00,CLR,,0.00,WeatherDisplay:10.37,2013-01-01 12:19:00,
2013-01-01 07:20:00,26.9,24.1,30.17,WNW,298,1.1,1.1,89,0.00,CLR,,0.00,WeatherDisplay:10.37,2013-01-01 12:20:00,
2013-01-01 07:22:00,26.9,24.1,30.17,NW,308,2.3,2.3,89,0.00,CLR,,0.00,WeatherDisplay:10.37,2013-01-01 12:22:00,
2013-01-01 07:24:00,26.9,24.1,30.17,WNW,294,3.0,3.0,89,0.00,CLR,,0.00,WeatherDisplay:10.37,2013-01-01 12:24:00,
2013-01-01 07:25:00,26.9,24.1,30.17,NW,304,3.5,3.5,89,0.00,CLR,,0.00,WeatherDisplay:10.37,2013-01-01 12:25:00,
2013-01-01 07:27:00,26.8,23.7,30.17,West,277,1.1,1.1,88,0.00,CLR,,0.00,WeatherDisplay:10.37,2013-01-01 12:27:00,
2013-01-01 07:29:00,26.8,24.0,30.17,West,277,2.3,2.3,89,0.00,CLR,,0.00,WeatherDisplay:10.37,2013-01-01 12:29:00,
2013-01-01 07:30:00,26.8,24.0,30.17,West,277,1.1,0.0,89,0.00,CLR,,0.00,WeatherDisplay:10.37,2013-01-01 12:30:00,
2013-01-01 07:32:00,26.7,23.9,30.17,West,277,0.0,0.0,89,0.00,CLR,,0.00,WeatherDisplay:10.37,2013-01-01 12:32:00,
2013-01-01 07:34:00,26.7,23.9,30.17,West,277,2.3,2.3,89,0.00,CLR,,0.00,WeatherDisplay:10.37,2013-01-01 12:34:00,
2013-01-01 07:35:00,26.6,23.8,30.17,West,277,2.3,0.0,89,0.00,CLR,,0.00,WeatherDisplay:10.37,2013-01-01 12:35:00,
2013-01-01 07:38:00,26.5,23.7,30.17,West,277,2.3,2.3,89,0.00,CLR,,0.00,WeatherDisplay:10.37,2013-01-01 12:38:00,
2013-01-01 07:39:00,26.5,23.7,30.17,West,277,1.1,1.1,89,0.00,CLR,,0.00,WeatherDisplay:10.37,2013-01-01 12:39:00,
2013-01-01 07:40:00,26.5,23.7,30.17,West,277,3.0,3.0,89,0.00,CLR,,0.00,WeatherDisplay:10.37,2013-01-01 12:40:00,
2013-01-01 07:44:00,26.4,23.6,30.17,West,281,3.5,3.5,89,0.00,CLR,,0.00,WeatherDisplay:10.37,2013-01-01 12:44:00,
2013-01-01 07:45:00,26.4,23.6,30.18,WNW,296,3.5,3.5,89,0.00,CLR,,0.00,WeatherDisplay:10.37,2013-01-01 12:45:00,
2013-01-01 07:49:00,26.4,23.9,30.18,WNW,290,2.3,2.3,90,0.00,CLR,,0.00,WeatherDisplay:10.37,2013-01-01 12:49:00,
2013-01-01 07:50:00,26.4,23.9,30.18,WNW,283,3.5,3.5,90,0.00,CLR,,0.00,WeatherDisplay:10.37,2013-01-01 12:50:00,
2013-01-01 07:54:00,26.4,23.9,30.18,WNW,285,2.3,2.3,90,0.00,CLR,,0.00,WeatherDisplay:10.37,2013-01-01 12:54:00,
2013-01-01 07:55:00,26.3,23.8,30.18,WNW,285,1.1,0.0,90,0.00,CLR,,0.00,WeatherDisplay:10.37,2013-01-01 12:55:00,
2013-01-01 07:56:00,26.3,23.8,30.18,WNW,285,1.1,1.1,90,0.00,CLR,,0.00,WeatherDisplay:10.37,2013-01-01 12:56:00,
2013-01-01 07:59:00,26.3,23.8,30.18,WNW,285,0.0,0.0,90,0.00,CLR,,0.00,WeatherDisplay:10.37,2013-01-01 12:59:00,
2013-01-01 08:00:00,26.3,23.8,30.18,WNW,285,0.0,0.0,90,0.00,CLR,,0.00,WeatherDisplay:10.37,2013-01-01 13:00:00,
2013-01-01 08:01:00,26.2,23.7,30.18,WNW,285,0.0,0.0,90,0.00,CLR,,0.00,WeatherDisplay:10.37,2013-01-01 13:01:00,
2013-01-01 08:04:00,26.2,23.7,30.18,WNW,285,2.0,2.0,90,0.00,CLR,,0.00,WeatherDisplay:10.37,2013-01-01 13:04:00,
2013-01-01 08:05:00,26.2,23.7,30.18,WNW,285,1.0,4.0,90,0.00,CLR,,0.00,WeatherDisplay:10.37,2013-01-01 13:05:00,
2013-01-01 08:06:00,26.1,23.6,30.18,West,269,3.5,3.5,90,0.00,CLR,,0.00,WeatherDisplay:10.37,2013-01-01 13:06:00,
2013-01-01 08:09:00,26.1,23.6,30.18,SW,230,3.0,3.0,90,0.00,CLR,,0.00,WeatherDisplay:10.37,2013-01-01 13:09:00,
2013-01-01 08:10:00,26.1,23.6,30.18,WSW,257,2.0,3.0,90,0.00,CLR,,0.00,WeatherDisplay:10.37,2013-01-01 13:10:00,
2013-01-01 08:11:00,26.0,23.5,30.18,WSW,240,3.5,3.5,90,0.00,CLR,,0.00,WeatherDisplay:10.37,2013-01-01 13:11:00,
2013-01-01 08:14:00,26.0,23.5,30.18,WSW,241,2.3,2.3,90,0.00,CLR,,0.00,WeatherDisplay:10.37,2013-01-01 13:14:00,
2013-01-01 08:15:00,26.0,23.5,30.19,WSW,243,1.0,4.0,90,0.00,CLR,,0.00,WeatherDisplay:10.37,2013-01-01 13:15:00,
2013-01-01 08:16:00,26.0,23.5,30.19,WSW,241,2.0,2.0,90,0.00,CLR,,0.00,WeatherDisplay:10.37,2013-01-01 13:16:00,
2013-01-01 08:20:00,26.0,23.5,30.19,WSW,241,0.0,3.0,90,0.00,CLR,,0.00,WeatherDisplay:10.37,2013-01-01 13:20:00,
2013-01-01 08:21:00,26.0,23.5,30.19,WSW,242,0.0,0.0,90,0.00,CLR,,0.00,WeatherDisplay:10.37,2013-01-01 13:21:00,
2013-01-01 08:25:00,25.9,23.4,30.20,WSW,242,1.0,2.0,90,0.00,CLR,,0.00,WeatherDisplay:10.37,2013-01-01 13:25:00,
2013-01-01 08:26:00,25.9,23.6,30.20,WSW,242,2.3,2.3,91,0.00,CLR,,0.00,WeatherDisplay:10.37,2013-01-01 13:26:00,
2013-01-01 08:30:00,25.9,23.6,30.20,West,259,2.3,2.3,91,0.00,CLR,,0.00,WeatherDisplay:10.37,2013-01-01 13:30:00,
2013-01-01 08:31:00,25.9,23.6,30.20,West,271,3.5,3.5,91,0.00,CLR,,0.00,WeatherDisplay:10.37,2013-01-01 13:31:00,
2013-01-01 08:35:00,26.0,23.7,30.20,West,278,2.3,2.3,91,0.00,CLR,,0.00,WeatherDisplay:10.37,2013-01-01 13:35:00,
2013-01-01 08:36:00,26.0,23.7,30.21,West,275,3.5,3.5,91,0.00,CLR,,0.00,WeatherDisplay:10.37,2013-01-01 13:36:00,
2013-01-01 08:37:00,26.0,23.7,30.21,West,275,3.5,3.5,91,0.00,CLR,,0.00,WeatherDisplay:10.37,2013-01-01 13:37:00,
2013-01-01 08:40:00,26.0,23.7,30.20,West,271,3.5,3.5,91,0.00,CLR,,0.00,WeatherDisplay:10.37,2013-01-01 13:40:00,
2013-01-01 08:41:00,26.0,23.7,30.20,West,271,3.5,3.5,91,0.00,CLR,,0.00,WeatherDisplay:10.37,2013-01-01 13:41:00,
2013-01-01 08:42:00,26.0,23.7,30.20,West,270,2.3,2.3,91,0.00,CLR,,0.00,WeatherDisplay:10.37,2013-01-01 13:42:00,
2013-01-01 08:46:00,25.9,23.6,30.19,West,275,2.3,2.3,91,0.00,CLR,,0.00,WeatherDisplay:10.37,2013-01-01 13:46:00,
2013-01-01 08:47:00,25.9,23.6,30.20,West,275,2.3,2.3,91,0.00,CLR,,0.00,WeatherDisplay:10.37,2013-01-01 13:47:00,
2013-01-01 08:51:00,25.7,23.4,30.20,West,259,3.5,3.5,91,0.00,CLR,,0.00,WeatherDisplay:10.37,2013-01-01 13:51:00,
2013-01-01 08:52:00,25.7,23.4,30.20,West,265,3.5,3.5,91,0.00,CLR,,0.00,WeatherDisplay:10.37,2013-01-01 13:52:00,
2013-01-01 08:56:00,25.6,23.3,30.20,West,275,2.3,2.3,91,0.00,CLR,,0.00,WeatherDisplay:10.37,2013-01-01 13:56:00,
2013-01-01 08:57:00,25.6,23.3,30.20,West,273,3.5,3.5,91,0.00,CLR,,0.00,WeatherDisplay:10.37,2013-01-01 13:57:00,
2013-01-01 09:01:00,25.6,23.3,30.20,West,271,3.5,3.5,91,0.00,CLR,,0.00,WeatherDisplay:10.37,2013-01-01 14:01:00,
2013-01-01 09:02:00,25.6,23.3,30.20,West,267,2.3,2.3,91,0.00,CLR,,0.00,WeatherDisplay:10.37,2013-01-01 14:02:00,
2013-01-01 09:06:00,25.6,23.3,30.20,West,265,2.3,2.3,91,0.00,CLR,,0.00,WeatherDisplay:10.37,2013-01-01 14:06:00,
2013-01-01 09:07:00,25.5,23.2,30.20,West,265,2.3,2.3,91,0.00,CLR,,0.00,WeatherDisplay:10.37,2013-01-01 14:07:00,
2013-01-01 09:11:00,25.6,23.3,30.20,WSW,255,2.3,2.3,91,0.00,CLR,,0.00,WeatherDisplay:10.37,2013-01-01 14:11:00,
2013-01-01 09:12:00,25.6,23.3,30.20,WSW,255,2.3,2.3,91,0.00,CLR,,0.00,WeatherDisplay:10.37,2013-01-01 14:12:00,
2013-01-01 09:13:00,25.6,23.3,30.19,WSW,255,2.3,2.3,91,0.00,CLR,,0.00,WeatherDisplay:10.37,2013-01-01 14:13:00,
2013-01-01 09:16:00,25.8,23.5,30.19,WSW,255,0.0,0.0,91,0.00,CLR,,0.00,WeatherDisplay:10.37,2013-01-01 14:16:00,
2013-01-01 09:17:00,25.9,23.9,30.19,WSW,255,0.0,0.0,92,0.00,CLR,,0.00,WeatherDisplay:10.37,2013-01-01 14:17:00,
2013-01-01 09:18:00,25.9,23.6,30.19,WSW,255,0.0,0.0,91,0.00,CLR,,0.00,WeatherDisplay:10.37,2013-01-01 14:18:00,
2013-01-01 09:21:00,26.4,24.4,30.19,West,259,3.5,3.5,92,0.00,CLR,,0.00,WeatherDisplay:10.37,2013-01-01 14:21:00,
2013-01-01 09:23:00,26.5,24.2,30.19,West,271,3.5,3.5,91,0.00,CLR,,0.00,WeatherDisplay:10.37,2013-01-01 14:23:00,
2013-01-01 09:26:00,26.7,24.4,30.18,WNW,288,3.5,3.5,91,0.00,CLR,,0.00,WeatherDisplay:10.37,2013-01-01 14:26:00,
2013-01-01 09:27:00,26.7,24.4,30.18,WNW,298,3.5,3.5,91,0.00,CLR,,0.00,WeatherDisplay:10.37,2013-01-01 14:27:00,
2013-01-01 09:28:00,26.7,24.4,30.18,WNW,298,3.5,3.5,91,0.00,CLR,,0.00,WeatherDisplay:10.37,2013-01-01 14:28:00,
2013-01-01 09:31:00,27.0,24.5,30.19,NW,306,3.5,3.5,90,0.00,CLR,,0.00,WeatherDisplay:10.37,2013-01-01 14:31:00,
2013-01-01 09:32:00,27.0,24.5,30.19,WNW,302,2.0,2.0,90,0.00,CLR,,0.00,WeatherDisplay:10.37,2013-01-01 14:32:00,
2013-01-01 09:33:00,27.0,24.7,30.19,WNW,302,3.5,3.5,91,0.00,CLR,,0.00,WeatherDisplay:10.37,2013-01-01 14:33:00,
2013-01-01 09:36:00,27.1,24.6,30.19,West,280,2.3,2.3,90,0.00,CLR,,0.00,WeatherDisplay:10.37,2013-01-01 14:36:00,
2013-01-01 09:37:00,27.2,24.7,30.19,NW,319,3.5,3.5,90,0.00,CLR,,0.00,WeatherDisplay:10.37,2013-01-01 14:37:00,
2013-01-01 09:38:00,27.2,24.7,30.19,NW,319,2.3,2.3,90,0.00,CLR,,0.00,WeatherDisplay:10.37,2013-01-01 14:38:00,
2013-01-01 09:41:00,27.3,24.8,30.18,WNW,292,3.5,3.5,90,0.00,CLR,,0.00,WeatherDisplay:10.37,2013-01-01 14:41:00,
2013-01-01 09:42:00,27.3,24.8,30.18,West,279,2.3,2.3,90,0.00,CLR,,0.00,WeatherDisplay:10.37,2013-01-01 14:42:00,
2013-01-01 09:43:00,27.4,24.6,30.19,WNW,287,3.5,3.5,89,0.00,CLR,,0.00,WeatherDisplay:10.37,2013-01-01 14:43:00,
2013-01-01 09:46:00,27.3,24.5,30.19,West,273,3.5,3.5,89,0.00,CLR,,0.00,WeatherDisplay:10.37,2013-01-01 14:46:00,
2013-01-01 09:47:00,27.3,24.5,30.19,WNW,286,3.5,3.5,89,0.00,CLR,,0.00,WeatherDisplay:10.37,2013-01-01 14:47:00,
2013-01-01 09:48:00,27.3,24.5,30.19,WNW,286,2.3,2.3,89,0.00,CLR,,0.00,WeatherDisplay:10.37,2013-01-01 14:48:00,
2013-01-01 09:52:00,27.2,24.4,30.18,WNW,286,2.3,2.3,89,0.00,CLR,,0.00,WeatherDisplay:10.37,2013-01-01 14:52:00,
2013-01-01 09:53:00,27.2,24.1,30.18,NW,317,2.3,2.3,88,0.00,CLR,,0.00,WeatherDisplay:10.37,2013-01-01 14:53:00,
2013-01-01 09:57:00,27.5,24.4,30.17,NW,311,3.5,3.5,88,0.00,CLR,,0.00,WeatherDisplay:10.37,2013-01-01 14:57:00,
2013-01-01 09:58:00,27.6,24.5,30.17,WNW,300,3.5,3.5,88,0.00,CLR,,0.00,WeatherDisplay:10.37,2013-01-01 14:58:00,
2013-01-01 10:02:00,27.8,24.4,30.17,NW,311,3.5,3.5,87,0.00,CLR,,0.00,WeatherDisplay:10.37,2013-01-01 15:02:00,
2013-01-01 10:03:00,27.8,24.4,30.17,WNW,300,3.5,3.5,87,0.00,CLR,,0.00,WeatherDisplay:10.37,2013-01-01 15:03:00,
2013-01-01 10:04:00,27.8,24.4,30.17,NW,317,3.5,3.5,87,0.00,CLR,,0.00,WeatherDisplay:10.37,2013-01-01 15:04:00,
2013-01-01 10:07:00,28.0,24.6,30.17,NNW,330,4.6,4.6,87,0.00,CLR,,0.00,WeatherDisplay:10.37,2013-01-01 15:07:00,
2013-01-01 10:08:00,28.0,24.6,30.17,NW,305,4.6,4.6,87,0.00,CLR,,0.00,WeatherDisplay:10.37,2013-01-01 15:08:00,
2013-01-01 10:09:00,28.1,24.5,30.17,NW,316,5.8,5.8,86,0.00,CLR,,0.00,WeatherDisplay:10.37,2013-01-01 15:09:00,
2013-01-01 10:12:00,28.0,24.4,30.16,NW,319,3.5,3.5,86,0.00,CLR,,0.00,WeatherDisplay:10.37,2013-01-01 15:12:00,
2013-01-01 10:13:00,28.0,24.4,30.16,NW,316,4.0,4.0,86,0.00,CLR,,0.00,WeatherDisplay:10.37,2013-01-01 15:13:00,
2013-01-01 10:14:00,28.0,24.4,30.16,NW,314,3.5,3.5,86,0.00,CLR,,0.00,WeatherDisplay:10.37,2013-01-01 15:14:00,
2013-01-01 10:17:00,28.0,24.1,30.16,NW,306,3.5,3.5,85,0.00,CLR,,0.00,WeatherDisplay:10.37,2013-01-01 15:17:00,
2013-01-01 10:18:00,28.0,24.1,30.16,NW,315,3.5,3.5,85,0.00,CLR,,0.00,WeatherDisplay:10.37,2013-01-01 15:18:00,
2013-01-01 10:19:00,28.0,24.1,30.16,NW,320,3.5,3.5,85,0.00,CLR,,0.00,WeatherDisplay:10.37,2013-01-01 15:19:00,
2013-01-01 10:23:00,28.2,24.6,30.17,NW,313,3.5,3.5,86,0.00,CLR,,0.00,WeatherDisplay:10.37,2013-01-01 15:23:00,
2013-01-01 10:24:00,28.3,24.6,30.17,NW,310,2.3,0.0,86,0.00,CLR,,0.00,WeatherDisplay:10.37,2013-01-01 15:24:00,
2013-01-01 10:28:00,28.5,24.8,30.17,NW,309,3.5,3.5,86,0.00,CLR,,0.00,WeatherDisplay:10.37,2013-01-01 15:28:00,
2013-01-01 10:29:00,28.5,24.8,30.17,West,280,2.3,2.3,86,0.00,CLR,,0.00,WeatherDisplay:10.37,2013-01-01 15:29:00,
2013-01-01 10:30:00,28.5,24.8,30.17,NW,304,3.5,3.5,86,0.00,CLR,,0.00,WeatherDisplay:10.37,2013-01-01 15:30:00,
2013-01-01 10:33:00,28.7,25.0,30.18,WNW,291,3.5,3.5,86,0.00,CLR,,0.00,WeatherDisplay:10.37,2013-01-01 15:33:00,
2013-01-01 10:34:00,28.7,25.0,30.18,WNW,288,3.5,3.5,86,0.00,CLR,,0.00,WeatherDisplay:10.37,2013-01-01 15:34:00,
2013-01-01 10:35:00,28.7,25.0,30.18,NW,307,3.5,3.5,86,0.00,CLR,,0.00,WeatherDisplay:10.37,2013-01-01 15:35:00,
2013-01-01 10:38:00,28.8,25.1,30.18,West,273,4.6,4.6,86,0.00,CLR,,0.00,WeatherDisplay:10.37,2013-01-01 15:38:00,
2013-01-01 10:39:00,28.7,25.0,30.19,West,274,5.0,5.0,86,0.00,CLR,,0.00,WeatherDisplay:10.37,2013-01-01 15:39:00,
2013-01-01 10:40:00,28.7,25.0,30.19,West,276,4.6,4.6,86,0.00,CLR,,0.00,WeatherDisplay:10.37,2013-01-01 15:40:00,
2013-01-01 10:43:00,28.6,24.9,30.20,West,281,4.6,4.6,86,0.00,CLR,,0.00,WeatherDisplay:10.37,2013-01-01 15:43:00,
2013-01-01 10:44:00,28.7,25.0,30.20,West,281,3.5,3.5,86,0.00,CLR,,0.00,WeatherDisplay:10.37,2013-01-01 15:44:00,
2013-01-01 10:45:00,28.7,25.3,30.20,West,275,3.5,3.5,87,0.00,CLR,,0.00,WeatherDisplay:10.37,2013-01-01 15:45:00,
2013-01-01 10:48:00,28.7,25.3,30.21,WNW,290,3.5,3.5,87,0.00,CLR,,0.00,WeatherDisplay:10.37,2013-01-01 15:48:00,
2013-01-01 10:49:00,28.7,25.3,30.21,West,269,4.0,4.0,87,0.00,CLR,,0.00,WeatherDisplay:10.37,2013-01-01 15:49:00,
2013-01-01 10:50:00,28.7,25.3,30.21,West,271,3.5,3.5,87,0.00,CLR,,0.00,WeatherDisplay:10.37,2013-01-01 15:50:00,
2013-01-01 10:54:00,28.7,25.0,30.21,West,277,4.6,4.6,86,0.00,CLR,,0.00,WeatherDisplay:10.37,2013-01-01 15:54:00,
2013-01-01 10:55:00,28.8,25.4,30.21,WNW,284,3.5,3.5,87,0.00,CLR,,0.00,WeatherDisplay:10.37,2013-01-01 15:55:00,
2013-01-01 10:59:00,28.8,25.4,30.22,West,259,4.0,4.0,87,0.00,CLR,,0.00,WeatherDisplay:10.37,2013-01-01 15:59:00,
2013-01-01 11:00:00,28.8,25.4,30.22,WNW,302,5.8,5.8,87,0.00,CLR,,0.00,WeatherDisplay:10.37,2013-01-01 16:00:00,
2013-01-01 11:04:00,28.8,25.4,30.22,WNW,296,3.5,3.5,87,0.00,CLR,,0.00,WeatherDisplay:10.37,2013-01-01 16:04:00,
2013-01-01 11:05:00,28.8,25.4,30.22,WNW,302,3.5,3.5,87,0.00,CLR,,0.00,WeatherDisplay:10.37,2013-01-01 16:05:00,
2013-01-01 11:06:00,28.8,25.4,30.22,WNW,297,3.5,3.5,87,0.00,CLR,,0.00,WeatherDisplay:10.37,2013-01-01 16:06:00,
2013-01-01 11:09:00,28.9,25.2,30.22,WNW,297,3.0,3.0,86,0.00,CLR,,0.00,WeatherDisplay:10.37,2013-01-01 16:09:00,
2013-01-01 11:10:00,29.0,25.3,30.22,WNW,297,3.5,3.5,86,0.00,CLR,,0.00,WeatherDisplay:10.37,2013-01-01 16:10:00,
2013-01-01 11:11:00,29.0,25.3,30.22,NW,309,3.5,3.5,86,0.00,CLR,,0.00,WeatherDisplay:10.37,2013-01-01 16:11:00,
2013-01-01 11:14:00,29.2,25.5,30.21,NW,314,3.5,3.5,86,0.00,CLR,,0.00,WeatherDisplay:10.37,2013-01-01 16:14:00,
2013-01-01 11:15:00,29.2,25.5,30.21,WNW,296,3.5,3.5,86,0.00,CLR,,0.00,WeatherDisplay:10.37,2013-01-01 16:15:00,
2013-01-01 11:16:00,29.3,25.6,30.21,WNW,295,3.5,3.5,86,0.00,CLR,,0.00,WeatherDisplay:10.37,2013-01-01 16:16:00,
2013-01-01 11:19:00,29.4,25.7,30.20,WNW,293,3.5,3.5,86,0.00,CLR,,0.00,WeatherDisplay:10.37,2013-01-01 16:19:00,
2013-01-01 11:21:00,29.4,25.7,30.20,NW,319,3.5,3.5,86,0.00,CLR,,0.00,WeatherDisplay:10.37,2013-01-01 16:21:00,
2013-01-01 11:24:00,29.4,25.4,30.20,WNW,300,3.5,3.5,85,0.00,CLR,,0.00,WeatherDisplay:10.37,2013-01-01 16:24:00,
2013-01-01 11:26:00,29.4,25.7,30.21,West,271,5.0,5.0,86,0.00,CLR,,0.00,WeatherDisplay:10.37,2013-01-01 16:26:00,
2013-01-01 11:30:00,29.5,25.8,30.20,WNW,302,3.5,3.5,86,0.00,CLR,,0.00,WeatherDisplay:10.37,2013-01-01 16:30:00,
2013-01-01 11:31:00,29.6,25.9,30.20,WNW,301,3.5,3.5,86,0.00,CLR,,0.00,WeatherDisplay:10.37,2013-01-01 16:31:00,
2013-01-01 11:32:00,29.6,25.9,30.20,NW,312,3.5,3.5,86,0.00,CLR,,0.00,WeatherDisplay:10.37,2013-01-01 16:32:00,
2013-01-01 11:36:00,29.7,26.0,30.20,WNW,295,4.6,4.6,86,0.00,CLR,,0.00,WeatherDisplay:10.37,2013-01-01 16:36:00,
2013-01-01 11:37:00,29.7,25.7,30.20,WNW,282,2.3,2.3,85,0.00,CLR,,0.00,WeatherDisplay:10.37,2013-01-01 16:37:00,
2013-01-01 11:41:00,29.9,26.2,30.20,WNW,283,3.5,3.5,86,0.00,CLR,,0.00,WeatherDisplay:10.37,2013-01-01 16:41:00,
2013-01-01 11:42:00,29.9,26.2,30.20,West,273,3.5,3.5,86,0.00,CLR,,0.00,WeatherDisplay:10.37,2013-01-01 16:42:00,
2013-01-01 11:46:00,30.1,26.1,30.20,West,271,3.5,3.5,85,0.00,CLR,,0.00,WeatherDisplay:10.37,2013-01-01 16:46:00,
2013-01-01 11:47:00,30.1,26.1,30.20,West,271,3.5,3.5,85,0.00,CLR,,0.00,WeatherDisplay:10.37,2013-01-01 16:47:00,
2013-01-01 11:51:00,29.9,25.9,30.21,West,273,3.5,3.5,85,0.00,CLR,,0.00,WeatherDisplay:10.37,2013-01-01 16:51:00,
2013-01-01 11:52:00,30.0,26.3,30.21,West,273,3.5,3.5,86,0.00,CLR,,0.00,WeatherDisplay:10.37,2013-01-01 16:52:00,
2013-01-01 11:56:00,30.1,26.1,30.21,WNW,296,2.3,2.3,85,0.00,CLR,,0.00,WeatherDisplay:10.37,2013-01-01 16:56:00,
2013-01-01 11:57:00,30.2,26.5,30.21,WNW,296,2.3,2.3,86,0.00,CLR,,0.00,WeatherDisplay:10.37,2013-01-01 16:57:00,
2013-01-01 12:02:00,30.5,26.2,30.20,NNW,332,3.5,3.5,84,0.01,RA,,0.01,WeatherDisplay:10.37,2013-01-01 17:02:00,
2013-01-01 12:03:00,30.5,26.2,30.20,NW,314,4.0,4.0,84,0.01,RA,,0.01,WeatherDisplay:10.37,2013-01-01 17:03:00,
2013-01-01 12:07:00,30.4,25.9,30.21,NW,321,4.0,4.0,83,0.01,RA,,0.01,WeatherDisplay:10.37,2013-01-01 17:07:00,
2013-01-01 12:08:00,30.4,25.9,30.21,NNW,340,3.5,3.5,83,0.01,RA,,0.01,WeatherDisplay:10.37,2013-01-01 17:08:00,
2013-01-01 12:12:00,30.3,25.8,30.22,NW,311,1.1,0.0,83,0.01,CLR,,0.01,WeatherDisplay:10.37,2013-01-01 17:12:00,
2013-01-01 12:14:00,30.4,25.9,30.22,NW,317,2.0,2.0,83,0.01,CLR,,0.01,WeatherDisplay:10.37,2013-01-01 17:14:00,
2013-01-01 12:17:00,30.6,26.3,30.22,WNW,283,4.6,4.6,84,0.01,CLR,,0.01,WeatherDisplay:10.37,2013-01-01 17:17:00,
2013-01-01 12:19:00,30.7,26.4,30.21,WNW,290,3.5,3.5,84,0.01,CLR,,0.01,WeatherDisplay:10.37,2013-01-01 17:19:00,
2013-01-01 12:22:00,30.8,26.2,30.20,North,5,3.5,3.5,83,0.01,CLR,,0.01,WeatherDisplay:10.37,2013-01-01 17:22:00,
2013-01-01 12:23:00,30.8,26.2,30.20,North,360,3.5,3.5,83,0.01,CLR,,0.01,WeatherDisplay:10.37,2013-01-01 17:23:00,
2013-01-01 12:24:00,30.7,25.9,30.20,NNW,339,4.0,4.0,82,0.01,CLR,,0.01,WeatherDisplay:10.37,2013-01-01 17:24:00,
2013-01-01 12:27:00,30.4,25.6,30.20,NNW,339,3.5,3.5,82,0.01,CLR,,0.01,WeatherDisplay:10.37,2013-01-01 17:27:00,
2013-01-01 12:28:00,30.3,25.5,30.20,NNW,336,3.5,3.5,82,0.01,CLR,,0.01,WeatherDisplay:10.37,2013-01-01 17:28:00,
2013-01-01 12:29:00,30.2,25.7,30.21,NW,312,3.5,3.5,83,0.01,CLR,,0.01,WeatherDisplay:10.37,2013-01-01 17:29:00,
2013-01-01 12:32:00,30.1,25.8,30.20,NW,310,3.5,3.5,84,0.01,CLR,,0.01,WeatherDisplay:10.37,2013-01-01 17:32:00,
2013-01-01 12:33:00,30.1,25.8,30.20,NW,310,3.5,3.5,84,0.01,CLR,,0.01,WeatherDisplay:10.37,2013-01-01 17:33:00,
2013-01-01 12:34:00,30.1,25.8,30.20,NW,311,4.6,4.6,84,0.01,CLR,,0.01,WeatherDisplay:10.37,2013-01-01 17:34:00,
2013-01-01 12:37:00,30.1,25.6,30.19,North,5,2.3,2.3,83,0.01,CLR,,0.01,WeatherDisplay:10.37,2013-01-01 17:37:00,
2013-01-01 12:38:00,30.1,25.6,30.19,NNW,335,2.3,2.3,83,0.01,CLR,,0.01,WeatherDisplay:10.37,2013-01-01 17:38:00,
2013-01-01 12:39:00,30.1,25.6,30.19,NNW,336,3.5,3.5,83,0.01,CLR,,0.01,WeatherDisplay:10.37,2013-01-01 17:39:00,
2013-01-01 12:43:00,30.1,25.6,30.20,NNW,327,2.3,2.3,83,0.01,CLR,,0.01,WeatherDisplay:10.37,2013-01-01 17:43:00,
2013-01-01 12:44:00,30.2,25.7,30.19,NW,326,3.5,3.5,83,0.01,CLR,,0.01,WeatherDisplay:10.37,2013-01-01 17:44:00,
2013-01-01 12:48:00,30.1,25.6,30.20,NW,325,3.5,3.5,83,0.01,CLR,,0.01,WeatherDisplay:10.37,2013-01-01 17:48:00,
2013-01-01 12:50:00,30.1,25.3,30.19,NW,321,3.5,3.5,82,0.01,CLR,,0.01,WeatherDisplay:10.37,2013-01-01 17:50:00,
2013-01-01 12:53:00,29.9,25.4,30.20,NNW,331,3.5,3.5,83,0.01,CLR,,0.01,WeatherDisplay:10.37,2013-01-01 17:53:00,
2013-01-01 12:55:00,29.8,25.3,30.20,NNW,333,1.0,4.0,83,0.00,CLR,,0.01,WeatherDisplay:10.37,2013-01-01 17:55:00,
2013-01-01 12:58:00,29.8,25.0,30.19,NNW,347,4.6,4.6,82,0.01,CLR,,0.01,WeatherDisplay:10.37,2013-01-01 17:58:00,
2013-01-01 13:00:00,29.7,25.2,30.19,NNW,332,2.3,2.3,83,0.00,CLR,,0.01,WeatherDisplay:10.37,2013-01-01 18:00:00,
2013-01-01 13:03:00,29.8,25.3,30.19,NNW,346,3.5,3.5,83,0.00,CLR,,0.01,WeatherDisplay:10.37,2013-01-01 18:03:00,
2013-01-01 13:04:00,29.8,25.3,30.19,NNW,328,3.5,3.5,83,0.00,CLR,,0.01,WeatherDisplay:10.37,2013-01-01 18:04:00,
2013-01-01 13:05:00,29.8,25.3,30.19,North,355,2.3,2.3,83,0.00,CLR,,0.01,WeatherDisplay:10.37,2013-01-01 18:05:00,
2013-01-01 13:08:00,29.9,25.1,30.19,NNE,21,3.5,3.5,82,0.00,CLR,,0.01,WeatherDisplay:10.37,2013-01-01 18:08:00,
2013-01-01 13:09:00,30.0,25.2,30.18,NE,39,3.5,3.5,82,0.00,CLR,,0.01,WeatherDisplay:10.37,2013-01-01 18:09:00,
2013-01-01 13:10:00,30.0,25.2,30.18,NW,319,3.5,3.5,82,0.00,CLR,,0.01,WeatherDisplay:10.37,2013-01-01 18:10:00,
2013-01-01 13:13:00,30.3,25.8,30.18,NNE,20,1.1,1.1,83,0.00,CLR,,0.01,WeatherDisplay:10.37,2013-01-01 18:13:00,
2013-01-01 13:14:00,30.4,25.9,30.18,North,11,2.3,2.3,83,0.00,CLR,,0.01,WeatherDisplay:10.37,2013-01-01 18:14:00,
2013-01-01 13:15:00,30.5,25.7,30.18,NNW,345,3.5,3.5,82,0.00,CLR,,0.01,WeatherDisplay:10.37,2013-01-01 18:15:00,
2013-01-01 13:18:00,30.7,25.6,30.18,North,360,3.5,3.5,81,0.00,CLR,,0.01,WeatherDisplay:10.37,2013-01-01 18:18:00,
2013-01-01 13:19:00,30.8,25.7,30.18,NNE,19,3.5,3.5,81,0.00,CLR,,0.02,WeatherDisplay:10.37,2013-01-01 18:19:00,
2013-01-01 13:20:00,30.8,25.7,30.18,NNW,348,3.5,3.5,81,0.01,RA,,0.02,WeatherDisplay:10.37,2013-01-01 18:20:00,
2013-01-01 13:23:00,30.9,25.8,30.18,North,350,3.5,3.5,81,0.01,RA,,0.02,WeatherDisplay:10.37,2013-01-01 18:23:00,
2013-01-01 13:24:00,30.9,25.8,30.18,NNW,333,3.5,3.5,81,0.01,RA,,0.02,WeatherDisplay:10.37,2013-01-01 18:24:00,
2013-01-01 13:25:00,31.0,25.9,30.18,NNW,327,2.3,2.3,81,0.01,RA,,0.02,WeatherDisplay:10.37,2013-01-01 18:25:00,
2013-01-01 13:28:00,31.1,25.7,30.17,NNW,327,1.1,1.1,80,0.01,RA,,0.02,WeatherDisplay:10.37,2013-01-01 18:28:00,
2013-01-01 13:29:00,31.1,26.0,30.17,NNW,327,2.3,2.3,81,0.01,RA,,0.02,WeatherDisplay:10.37,2013-01-01 18:29:00,
2013-01-01 13:30:00,31.1,25.7,30.17,NNW,337,2.3,2.3,80,0.01,RA,,0.02,WeatherDisplay:10.37,2013-01-01 18:30:00,
2013-01-01 13:31:00,31.1,26.0,30.17,NNW,333,3.5,3.5,81,0.01,,,0.02,WeatherDisplay:10.37,2013-01-01 18:31:00,
2013-01-01 13:33:00,31.1,26.0,30.17,NNW,337,2.3,2.3,81,0.01,CLR,,0.02,WeatherDisplay:10.37,2013-01-01 18:33:00,
2013-01-01 13:34:00,31.0,25.9,30.17,NNW,329,3.5,3.5,81,0.01,CLR,,0.02,WeatherDisplay:10.37,2013-01-01 18:34:00,
2013-01-01 13:35:00,31.1,25.9,30.17,NNW,334,2.0,3.0,81,0.00,CLR,,0.02,WeatherDisplay:10.37,2013-01-01 18:35:00,
2013-01-01 13:36:00,31.1,26.0,30.17,NNW,348,3.5,3.5,81,0.01,CLR,,0.02,WeatherDisplay:10.37,2013-01-01 18:36:00,
2013-01-01 13:39:00,31.2,26.0,30.17,NW,326,3.5,3.5,81,0.01,CLR,,0.02,WeatherDisplay:10.37,2013-01-01 18:39:00,
2013-01-01 13:40:00,31.2,26.0,30.17,NNW,337,2.0,4.0,81,0.00,CLR,,0.02,WeatherDisplay:10.37,2013-01-01 18:40:00,
2013-01-01 13:41:00,31.2,25.7,30.17,North,355,2.3,2.3,80,0.01,CLR,,0.02,WeatherDisplay:10.37,2013-01-01 18:41:00,
2013-01-01 13:44:00,31.1,25.7,30.17,NNW,335,3.5,3.5,80,0.01,CLR,,0.02,WeatherDisplay:10.37,2013-01-01 18:44:00,
2013-01-01 13:45:00,31.1,26.0,30.17,NNW,343,1.0,3.0,81,0.00,CLR,,0.02,WeatherDisplay:10.37,2013-01-01 18:45:00,
2013-01-01 13:46:00,31.0,25.6,30.17,NNW,330,3.5,3.5,80,0.01,CLR,,0.02,WeatherDisplay:10.37,2013-01-01 18:46:00,
2013-01-01 13:49:00,30.9,25.5,30.18,North,350,2.3,2.3,80,0.01,CLR,,0.02,WeatherDisplay:10.37,2013-01-01 18:49:00,
2013-01-01 13:50:00,30.9,25.5,30.18,NNW,348,3.5,3.5,80,0.01,CLR,,0.02,WeatherDisplay:10.37,2013-01-01 18:50:00,
2013-01-01 13:51:00,30.8,25.4,30.17,NNW,346,2.3,2.3,80,0.01,CLR,,0.02,WeatherDisplay:10.37,2013-01-01 18:51:00,
2013-01-01 13:54:00,30.8,25.4,30.18,North,350,1.1,1.1,80,0.01,CLR,,0.02,WeatherDisplay:10.37,2013-01-01 18:54:00,
2013-01-01 13:55:00,30.8,25.4,30.17,North,351,2.3,2.3,80,0.01,CLR,,0.02,WeatherDisplay:10.37,2013-01-01 18:55:00,
2013-01-01 13:57:00,30.7,25.0,30.18,NNE,16,3.5,3.5,79,0.01,CLR,,0.02,WeatherDisplay:10.37,2013-01-01 18:57:00,
2013-01-01 13:59:00,30.6,24.9,30.18,NNW,342,3.5,3.5,79,0.01,CLR,,0.02,WeatherDisplay:10.37,2013-01-01 18:59:00,
2013-01-01 14:00:00,30.6,25.2,30.18,NNW,338,3.5,3.5,80,0.01,CLR,,0.02,WeatherDisplay:10.37,2013-01-01 19:00:00,
2013-01-01 14:02:00,30.6,25.2,30.18,NNW,328,3.5,3.5,80,0.01,CLR,,0.02,WeatherDisplay:10.37,2013-01-01 19:02:00,
2013-01-01 14:05:00,30.5,25.1,30.18,NW,314,3.5,3.5,80,0.01,CLR,,0.02,WeatherDisplay:10.37,2013-01-01 19:05:00,
2013-01-01 14:07:00,30.3,24.9,30.18,NNW,328,3.5,3.5,80,0.01,CLR,,0.02,WeatherDisplay:10.37,2013-01-01 19:07:00,
2013-01-01 14:10:00,30.1,24.7,30.18,NNW,347,3.5,3.5,80,0.01,CLR,,0.02,WeatherDisplay:10.37,2013-01-01 19:10:00,
2013-01-01 14:11:00,30.0,24.6,30.18,NNW,342,3.5,3.5,80,0.01,CLR,,0.02,WeatherDisplay:10.37,2013-01-01 19:11:00,
2013-01-01 14:12:00,29.9,24.5,30.17,NNW,327,2.3,2.3,80,0.01,CLR,,0.02,WeatherDisplay:10.37,2013-01-01 19:12:00,
2013-01-01 14:15:00,29.7,24.3,30.17,NNW,347,3.5,3.5,80,0.01,CLR,,0.02,WeatherDisplay:10.37,2013-01-01 19:15:00,
2013-01-01 14:16:00,29.6,24.2,30.17,NNW,327,3.5,3.5,80,0.01,CLR,,0.02,WeatherDisplay:10.37,2013-01-01 19:16:00,
2013-01-01 14:17:00,29.5,24.1,30.17,NNW,340,2.3,2.3,80,0.01,CLR,,0.02,WeatherDisplay:10.37,2013-01-01 19:17:00,
2013-01-01 14:20:00,29.3,23.9,30.17,NNW,330,2.3,2.3,80,0.00,CLR,,0.02,WeatherDisplay:10.37,2013-01-01 19:20:00,
2013-01-01 14:21:00,29.3,23.9,30.17,NNW,330,2.3,2.3,80,0.00,CLR,,0.02,WeatherDisplay:10.37,2013-01-01 19:21:00,
2013-01-01 14:22:00,29.3,24.2,30.17,NNW,330,2.3,2.3,81,0.00,CLR,,0.02,WeatherDisplay:10.37,2013-01-01 19:22:00,
2013-01-01 14:25:00,29.3,24.2,30.17,NNW,330,3.5,3.5,81,0.00,CLR,,0.02,WeatherDisplay:10.37,2013-01-01 19:25:00,
2013-01-01 14:26:00,29.3,24.5,30.17,NNW,330,2.3,2.3,82,0.00,CLR,,0.02,WeatherDisplay:10.37,2013-01-01 19:26:00,
2013-01-01 14:27:00,29.4,24.6,30.17,NNW,330,2.3,2.3,82,0.00,CLR,,0.02,WeatherDisplay:10.37,2013-01-01 19:27:00,
2013-01-01 14:30:00,29.4,24.6,30.17,NNW,327,3.5,3.5,82,0.00,CLR,,0.02,WeatherDisplay:10.37,2013-01-01 19:30:00,
2013-01-01 14:31:00,29.5,24.7,30.17,NW,326,3.5,3.5,82,0.00,CLR,,0.02,WeatherDisplay:10.37,2013-01-01 19:31:00,
2013-01-01 14:33:00,29.6,24.8,30.18,NW,323,3.5,3.5,82,0.00,CLR,,0.02,WeatherDisplay:10.37,2013-01-01 19:33:00,
2013-01-01 14:35:00,29.7,24.9,30.18,NW,317,1.1,1.1,82,0.00,CLR,,0.02,WeatherDisplay:10.37,2013-01-01 19:35:00,
2013-01-01 14:36:00,29.8,25.0,30.18,NW,317,2.3,2.3,82,0.00,CLR,,0.02,WeatherDisplay:10.37,2013-01-01 19:36:00,
2013-01-01 14:38:00,29.9,25.1,30.18,NW,317,3.5,3.5,82,0.00,CLR,,0.02,WeatherDisplay:10.37,2013-01-01 19:38:00,
2013-01-01 14:41:00,30.1,25.3,30.18,NW,317,2.3,2.3,82,0.00,CLR,,0.02,WeatherDisplay:10.37,2013-01-01 19:41:00,
2013-01-01 14:43:00,30.2,25.1,30.18,NNW,332,3.5,3.5,81,0.00,CLR,,0.02,WeatherDisplay:10.37,2013-01-01 19:43:00,
2013-01-01 14:46:00,30.3,25.2,30.17,NW,317,2.3,2.3,81,0.00,CLR,,0.02,WeatherDisplay:10.37,2013-01-01 19:46:00,
2013-01-01 14:48:00,30.4,25.3,30.17,NW,325,3.5,3.5,81,0.00,CLR,,0.02,WeatherDisplay:10.37,2013-01-01 19:48:00,
2013-01-01 14:51:00,30.3,24.9,30.17,NW,314,3.5,3.5,80,0.00,CLR,,0.02,WeatherDisplay:10.37,2013-01-01 19:51:00,
2013-01-01 14:52:00,30.3,24.6,30.17,NNW,335,3.5,3.5,79,0.00,CLR,,0.02,WeatherDisplay:10.37,2013-01-01 19:52:00,
2013-01-01 14:53:00,30.2,24.5,30.17,NNW,337,3.5,3.5,79,0.00,CLR,,0.02,WeatherDisplay:10.37,2013-01-01 19:53:00,
2013-01-01 14:56:00,30.1,24.4,30.16,NNW,339,3.5,3.5,79,0.00,CLR,,0.02,WeatherDisplay:10.37,2013-01-01 19:56:00,
2013-01-01 14:57:00,30.1,24.4,30.16,NNW,337,4.6,4.6,79,0.00,CLR,,0.02,WeatherDisplay:10.37,2013-01-01 19:57:00,
2013-01-01 14:58:00,30.0,24.3,30.17,NNW,340,4.6,4.6,79,0.00,CLR,,0.02,WeatherDisplay:10.37,2013-01-01 19:58:00,
2013-01-01 15:01:00,29.9,24.2,30.17,North,355,3.5,3.5,79,0.00,CLR,,0.02,WeatherDisplay:10.37,2013-01-01 20:01:00,
2013-01-01 15:02:00,29.9,24.5,30.17,NNW,340,3.5,3.5,80,0.00,CLR,,0.02,WeatherDisplay:10.37,2013-01-01 20:02:00,
2013-01-01 15:04:00,29.9,24.2,30.17,NNW,348,3.5,3.5,79,0.00,CLR,,0.02,WeatherDisplay:10.37,2013-01-01 20:04:00,
2013-01-01 15:07:00,29.8,24.4,30.17,North,355,3.5,3.5,80,0.00,CLR,,0.02,WeatherDisplay:10.37,2013-01-01 20:07:00,
2013-01-01 15:08:00,29.8,24.4,30.17,NNW,346,3.5,3.5,80,0.00,CLR,,0.02,WeatherDisplay:10.37,2013-01-01 20:08:00,
2013-01-01 15:09:00,29.8,24.4,30.17,NNW,346,2.3,2.3,80,0.00,CLR,,0.02,WeatherDisplay:10.37,2013-01-01 20:09:00,
2013-01-01 15:12:00,29.8,24.7,30.17,North,9,2.0,2.0,81,0.00,CLR,,0.02,WeatherDisplay:10.37,2013-01-01 20:12:00,
2013-01-01 15:13:00,29.7,24.6,30.17,North,355,2.0,2.0,81,0.00,CLR,,0.02,WeatherDisplay:10.37,2013-01-01 20:13:00,
2013-01-01 15:14:00,29.7,24.3,30.17,North,10,3.5,3.5,80,0.00,CLR,,0.02,WeatherDisplay:10.37,2013-01-01 20:14:00,
2013-01-01 15:17:00,29.6,23.9,30.17,NNE,14,3.5,3.5,79,0.00,CLR,,0.02,WeatherDisplay:10.37,2013-01-01 20:17:00,
2013-01-01 15:18:00,29.6,23.9,30.17,NNE,17,3.5,3.5,79,0.00,CLR,,0.02,WeatherDisplay:10.37,2013-01-01 20:18:00,
2013-01-01 15:19:00,29.5,23.8,30.17,North,350,3.5,3.5,79,0.00,CLR,,0.02,WeatherDisplay:10.37,2013-01-01 20:19:00,
2013-01-01 15:22:00,29.4,23.7,30.17,North,349,1.1,1.1,79,0.00,CLR,,0.02,WeatherDisplay:10.37,2013-01-01 20:22:00,
2013-01-01 15:23:00,29.3,23.6,30.17,NNW,340,2.3,2.3,79,0.00,CLR,,0.02,WeatherDisplay:10.37,2013-01-01 20:23:00,
2013-01-01 15:24:00,29.2,23.5,30.17,NNW,341,2.3,2.3,79,0.00,CLR,,0.02,WeatherDisplay:10.37,2013-01-01 20:24:00,
2013-01-01 15:27:00,29.0,23.3,30.17,NNW,346,2.3,2.3,79,0.00,CLR,,0.02,WeatherDisplay:10.37,2013-01-01 20:27:00,
2013-01-01 15:28:00,29.0,23.3,30.17,NNW,345,2.3,2.3,79,0.00,CLR,,0.02,WeatherDisplay:10.37,2013-01-01 20:28:00,
2013-01-01 15:30:00,29.0,23.3,30.17,NNW,344,2.3,2.3,79,0.00,CLR,,0.02,WeatherDisplay:10.37,2013-01-01 20:30:00,
2013-01-01 15:32:00,28.9,22.9,30.17,NNW,345,1.0,1.0,78,0.00,CLR,,0.02,WeatherDisplay:10.37,2013-01-01 20:32:00,
2013-01-01 15:33:00,28.9,22.9,30.17,NNE,23,2.3,2.3,78,0.00,CLR,,0.02,WeatherDisplay:10.37,2013-01-01 20:33:00,
2013-01-01 15:35:00,29.0,23.0,30.17,North,5,3.5,3.5,78,0.00,CLR,,0.02,WeatherDisplay:10.37,2013-01-01 20:35:00,
2013-01-01 15:37:00,29.1,23.4,30.17,NNE,19,3.5,3.5,79,0.00,CLR,,0.02,WeatherDisplay:10.37,2013-01-01 20:37:00,
2013-01-01 15:38:00,29.1,23.4,30.17,NNE,16,3.5,3.5,79,0.00,CLR,,0.02,WeatherDisplay:10.37,2013-01-01 20:38:00,
2013-01-01 15:39:00,29.2,23.2,30.17,NNE,18,2.3,2.3,78,0.00,CLR,,0.02,WeatherDisplay:10.37,2013-01-01 20:39:00,
2013-01-01 15:40:00,29.2,23.2,30.17,NE,36,2.3,2.3,78,0.00,CLR,,0.02,WeatherDisplay:10.37,2013-01-01 20:40:00,
2013-01-01 15:43:00,29.3,23.3,30.17,NNE,24,1.1,1.2,78,0.00,CLR,,0.02,WeatherDisplay:10.37,2013-01-01 20:43:00,
2013-01-01 15:44:00,29.3,23.3,30.17,NNE,24,2.3,2.3,78,0.00,CLR,,0.02,WeatherDisplay:10.37,2013-01-01 20:44:00,
2013-01-01 15:46:00,29.4,23.4,30.17,North,351,3.5,3.5,78,0.00,CLR,,0.02,WeatherDisplay:10.37,2013-01-01 20:46:00,
2013-01-01 15:48:00,29.5,23.2,30.17,NNE,17,3.5,3.5,77,0.00,CLR,,0.02,WeatherDisplay:10.37,2013-01-01 20:48:00,
2013-01-01 15:49:00,29.6,23.3,30.17,NNE,17,3.5,3.5,77,0.00,CLR,,0.02,WeatherDisplay:10.37,2013-01-01 20:49:00,
2013-01-01 15:51:00,29.6,23.3,30.17,NNE,15,3.5,3.5,77,0.00,CLR,,0.02,WeatherDisplay:10.37,2013-01-01 20:51:00,
2013-01-01 15:53:00,29.5,23.2,30.17,NNE,15,2.3,2.3,77,0.00,CLR,,0.02,WeatherDisplay:10.37,2013-01-01 20:53:00,
2013-01-01 15:54:00,29.5,23.2,30.18,NNE,15,2.3,2.3,77,0.00,CLR,,0.02,WeatherDisplay:10.37,2013-01-01 20:54:00,
2013-01-01 15:56:00,29.5,22.9,30.17,North,355,3.5,3.5,76,0.00,CLR,,0.02,WeatherDisplay:10.37,2013-01-01 20:56:00,
2013-01-01 15:58:00,29.4,22.8,30.17,North,355,3.5,3.5,76,0.00,CLR,,0.02,WeatherDisplay:10.37,2013-01-01 20:58:00,
2013-01-01 15:59:00,29.3,22.7,30.18,NNE,19,2.3,2.3,76,0.00,CLR,,0.02,WeatherDisplay:10.37,2013-01-01 20:59:00,
2013-01-01 16:01:00,29.3,22.7,30.18,North,355,2.3,2.3,76,0.00,CLR,,0.02,WeatherDisplay:10.37,2013-01-01 21:01:00,
2013-01-01 16:03:00,29.2,22.6,30.18,NNW,342,1.1,1.1,76,0.00,CLR,,0.02,WeatherDisplay:10.37,2013-01-01 21:03:00,
2013-01-01 16:04:00,29.2,22.6,30.18,North,350,1.1,1.1,76,0.00,CLR,,0.02,WeatherDisplay:10.37,2013-01-01 21:04:00,
2013-01-01 16:06:00,29.0,22.4,30.18,NNW,346,2.3,2.3,76,0.00,CLR,,0.02,WeatherDisplay:10.37,2013-01-01 21:06:00,
2013-01-01 16:08:00,28.9,22.3,30.18,NNW,346,1.1,1.1,76,0.00,CLR,,0.02,WeatherDisplay:10.37,2013-01-01 21:08:00,
2013-01-01 16:09:00,28.9,22.3,30.18,NNW,346,1.1,1.1,76,0.00,CLR,,0.02,WeatherDisplay:10.37,2013-01-01 21:09:00,
2013-01-01 16:12:00,28.8,22.2,30.18,North,349,2.3,2.3,76,0.00,CLR,,0.02,WeatherDisplay:10.37,2013-01-01 21:12:00,
2013-01-01 16:13:00,28.8,22.2,30.18,NNW,348,1.1,1.1,76,0.00,CLR,,0.02,WeatherDisplay:10.37,2013-01-01 21:13:00,
2013-01-01 16:14:00,28.7,22.1,30.18,NNW,347,2.0,2.0,76,0.00,CLR,,0.02,WeatherDisplay:10.37,2013-01-01 21:14:00,
2013-01-01 16:17:00,28.6,22.3,30.18,NNW,347,1.1,1.1,77,0.00,CLR,,0.02,WeatherDisplay:10.37,2013-01-01 21:17:00,
2013-01-01 16:18:00,28.5,22.2,30.18,NNW,347,0.0,0.0,77,0.00,CLR,,0.02,WeatherDisplay:10.37,2013-01-01 21:18:00,
2013-01-01 16:19:00,28.4,22.1,30.18,NNW,347,0.0,0.0,77,0.00,CLR,,0.02,WeatherDisplay:10.37,2013-01-01 21:19:00,
2013-01-01 16:22:00,28.3,22.0,30.18,NNW,347,0.0,0.0,77,0.00,CLR,,0.02,WeatherDisplay:10.37,2013-01-01 21:22:00,
2013-01-01 16:23:00,28.3,22.0,30.18,NNW,347,0.0,0.0,77,0.00,CLR,,0.02,WeatherDisplay:10.37,2013-01-01 21:23:00,
2013-01-01 16:24:00,28.2,21.9,30.18,NNW,347,0.0,0.1,77,0.00,CLR,,0.02,WeatherDisplay:10.37,2013-01-01 21:24:00,
2013-01-01 16:25:00,28.2,21.9,30.18,NNW,347,0.0,1.0,77,0.00,CLR,,0.02,WeatherDisplay:10.37,2013-01-01 21:25:00,
2013-01-01 16:27:00,28.0,21.7,30.18,NNW,347,1.0,1.0,77,0.00,CLR,,0.02,WeatherDisplay:10.37,2013-01-01 21:27:00,
2013-01-01 16:29:00,28.0,21.7,30.18,North,355,2.3,2.3,77,0.00,CLR,,0.02,WeatherDisplay:10.37,2013-01-01 21:29:00,
2013-01-01 16:30:00,28.0,22.0,30.18,North,355,1.1,1.1,78,0.00,CLR,,0.02,WeatherDisplay:10.37,2013-01-01 21:30:00,
2013-01-01 16:32:00,27.9,21.9,30.18,North,355,1.1,1.1,78,0.00,CLR,,0.02,WeatherDisplay:10.37,2013-01-01 21:32:00,
2013-01-01 16:34:00,27.9,21.9,30.18,North,355,0.0,0.0,78,0.00,CLR,,0.02,WeatherDisplay:10.37,2013-01-01 21:34:00,
2013-01-01 16:35:00,27.8,21.8,30.18,North,355,0.0,0.0,78,0.00,CLR,,0.02,WeatherDisplay:10.37,2013-01-01 21:35:00,
2013-01-01 16:37:00,27.7,21.7,30.18,North,355,0.0,0.0,78,0.00,CLR,,0.02,WeatherDisplay:10.37,2013-01-01 21:37:00,
2013-01-01 16:39:00,27.6,21.6,30.18,North,355,0.0,0.0,78,0.00,CLR,,0.02,WeatherDisplay:10.37,2013-01-01 21:39:00,
2013-01-01 16:40:00,27.5,21.5,30.18,North,355,0.0,0.0,78,0.00,CLR,,0.02,WeatherDisplay:10.37,2013-01-01 21:40:00,
2013-01-01 16:43:00,27.4,21.4,30.18,North,355,0.0,0.0,78,0.00,CLR,,0.02,WeatherDisplay:10.37,2013-01-01 21:43:00,
2013-01-01 16:44:00,27.3,21.3,30.18,North,355,0.0,0.0,78,0.00,CLR,,0.02,WeatherDisplay:10.37,2013-01-01 21:44:00,
2013-01-01 16:45:00,27.3,21.6,30.18,North,355,0.0,0.0,79,0.00,CLR,,0.02,WeatherDisplay:10.37,2013-01-01 21:45:00,
2013-01-01 16:46:00,27.2,21.5,30.18,North,355,0.0,0.0,79,0.00,CLR,,0.02,WeatherDisplay:10.37,2013-01-01 21:46:00,
2013-01-01 16:48:00,27.1,21.5,30.18,North,355,1.1,1.1,79,0.00,CLR,,0.02,WeatherDisplay:10.37,2013-01-01 21:48:00,
2013-01-01 16:49:00,27.1,21.5,30.18,North,355,0.0,0.0,79,0.00,CLR,,0.02,WeatherDisplay:10.37,2013-01-01 21:49:00,
2013-01-01 16:50:00,27.0,21.1,30.18,North,355,0.0,0.0,78,0.00,CLR,,0.02,WeatherDisplay:10.37,2013-01-01 21:50:00,
2013-01-01 16:51:00,27.0,21.1,30.18,North,355,0.0,0.0,78,0.00,CLR,,0.02,WeatherDisplay:10.37,2013-01-01 21:51:00,
2013-01-01 16:53:00,26.8,21.2,30.18,North,355,0.0,0.0,79,0.00,CLR,,0.02,WeatherDisplay:10.37,2013-01-01 21:53:00,
2013-01-01 16:54:00,26.8,21.2,30.18,North,355,0.0,0.0,79,0.00,CLR,,0.02,WeatherDisplay:10.37,2013-01-01 21:54:00,
2013-01-01 16:55:00,26.8,21.5,30.18,North,355,0.0,0.0,80,0.00,CLR,,0.02,WeatherDisplay:10.37,2013-01-01 21:55:00,
2013-01-01 16:56:00,26.9,21.6,30.18,North,355,0.0,0.0,80,0.00,CLR,,0.02,WeatherDisplay:10.37,2013-01-01 21:56:00,
2013-01-01 16:58:00,26.9,21.6,30.18,North,355,0.0,0.0,80,0.00,CLR,,0.02,WeatherDisplay:10.37,2013-01-01 21:58:00,
2013-01-01 16:59:00,27.0,21.7,30.18,North,355,0.0,0.0,80,0.00,CLR,,0.02,WeatherDisplay:10.37,2013-01-01 21:59:00,
2013-01-01 17:00:00,27.0,21.7,30.18,North,355,0.0,0.0,80,0.00,CLR,,0.02,WeatherDisplay:10.37,2013-01-01 22:00:00,
2013-01-01 17:01:00,27.0,21.7,30.18,North,355,0.0,0.0,80,0.00,CLR,,0.02,WeatherDisplay:10.37,2013-01-01 22:01:00,
2013-01-01 17:03:00,27.0,21.7,30.18,North,355,0.0,0.0,80,0.00,CLR,,0.02,WeatherDisplay:10.37,2013-01-01 22:03:00,
2013-01-01 17:04:00,27.1,21.7,30.18,North,355,0.0,0.0,80,0.00,CLR,,0.02,WeatherDisplay:10.37,2013-01-01 22:04:00,
2013-01-01 17:06:00,27.1,21.7,30.18,North,355,0.0,0.0,80,0.00,CLR,,0.02,WeatherDisplay:10.37,2013-01-01 22:06:00,
2013-01-01 17:07:00,27.1,21.5,30.18,North,355,0.0,0.0,79,0.00,CLR,,0.02,WeatherDisplay:10.37,2013-01-01 22:07:00,
2013-01-01 17:08:00,27.1,21.5,30.18,North,355,0.0,0.0,79,0.00,CLR,,0.02,WeatherDisplay:10.37,2013-01-01 22:08:00,
2013-01-01 17:10:00,27.2,21.5,30.18,North,355,0.0,0.0,79,0.00,CLR,,0.02,WeatherDisplay:10.37,2013-01-01 22:10:00,
2013-01-01 17:11:00,27.2,21.8,30.18,North,355,0.0,0.0,80,0.00,CLR,,0.02,WeatherDisplay:10.37,2013-01-01 22:11:00,
2013-01-01 17:12:00,27.2,21.5,30.18,North,355,0.0,0.0,79,0.00,CLR,,0.02,WeatherDisplay:10.37,2013-01-01 22:12:00,
2013-01-01 17:13:00,27.2,21.5,30.18,North,355,0.0,0.0,79,0.00,CLR,,0.02,WeatherDisplay:10.37,2013-01-01 22:13:00,
2013-01-01 17:15:00,27.2,21.5,30.18,North,355,0.0,0.0,79,0.00,CLR,,0.02,WeatherDisplay:10.37,2013-01-01 22:15:00,
2013-01-01 17:16:00,27.2,21.5,30.18,North,355,0.0,0.0,79,0.00,CLR,,0.02,WeatherDisplay:10.37,2013-01-01 22:16:00,
2013-01-01 17:17:00,27.2,21.8,30.18,North,355,0.0,0.0,80,0.00,CLR,,0.02,WeatherDisplay:10.37,2013-01-01 22:17:00,
2013-01-01 17:18:00,27.1,21.7,30.17,North,355,0.0,0.0,80,0.00,CLR,,0.02,WeatherDisplay:10.37,2013-01-01 22:18:00,
2013-01-01 17:20:00,27.0,21.4,30.17,North,355,0.0,0.0,79,0.00,CLR,,0.02,WeatherDisplay:10.37,2013-01-01 22:20:00,
2013-01-01 17:21:00,27.0,21.4,30.17,North,355,0.0,0.0,79,0.00,CLR,,0.02,WeatherDisplay:10.37,2013-01-01 22:21:00,
2013-01-01 17:22:00,26.9,21.3,30.17,North,355,0.0,0.0,79,0.00,CLR,,0.02,WeatherDisplay:10.37,2013-01-01 22:22:00,
2013-01-01 17:23:00,26.8,21.5,30.17,North,355,0.0,0.0,80,0.00,CLR,,0.02,WeatherDisplay:10.37,2013-01-01 22:23:00,
2013-01-01 17:25:00,26.7,21.4,30.17,North,355,2.3,2.3,80,0.00,CLR,,0.02,WeatherDisplay:10.37,2013-01-01 22:25:00,
2013-01-01 17:26:00,26.6,21.3,30.18,North,355,0.0,0.1,80,0.00,CLR,,0.02,WeatherDisplay:10.37,2013-01-01 22:26:00,
2013-01-01 17:27:00,26.5,21.2,30.17,North,355,1.1,0.0,80,0.00,CLR,,0.02,WeatherDisplay:10.37,2013-01-01 22:27:00,
2013-01-01 17:28:00,26.5,21.2,30.18,North,355,0.0,0.0,80,0.00,CLR,,0.02,WeatherDisplay:10.37,2013-01-01 22:28:00,
2013-01-01 17:30:00,26.3,21.3,30.18,North,355,0.0,0.0,81,0.00,CLR,,0.02,WeatherDisplay:10.37,2013-01-01 22:30:00,
2013-01-01 17:31:00,26.3,21.3,30.18,North,355,1.1,0.0,81,0.00,CLR,,0.02,WeatherDisplay:10.37,2013-01-01 22:31:00,
2013-01-01 17:32:00,26.2,21.2,30.18,North,355,0.0,0.0,81,0.00,CLR,,0.02,WeatherDisplay:10.37,2013-01-01 22:32:00,
2013-01-01 17:34:00,26.1,21.1,30.18,North,355,2.3,2.3,81,0.00,CLR,,0.02,WeatherDisplay:10.37,2013-01-01 22:34:00,
2013-01-01 17:35:00,26.1,21.4,30.18,NNW,348,1.0,1.0,82,0.00,CLR,,0.02,WeatherDisplay:10.37,2013-01-01 22:35:00,
2013-01-01 17:36:00,26.1,21.4,30.18,NNW,348,2.3,2.3,82,0.00,CLR,,0.02,WeatherDisplay:10.37,2013-01-01 22:36:00,
2013-01-01 17:37:00,26.1,21.4,30.18,NNW,330,1.1,1.1,82,0.00,CLR,,0.02,WeatherDisplay:10.37,2013-01-01 22:37:00,
2013-01-01 17:39:00,26.0,21.3,30.18,NNW,330,0.0,0.0,82,0.00,CLR,,0.02,WeatherDisplay:10.37,2013-01-01 22:39:00,
2013-01-01 17:40:00,26.1,21.4,30.18,NNW,330,0.0,0.0,82,0.00,CLR,,0.02,WeatherDisplay:10.37,2013-01-01 22:40:00,
2013-01-01 17:42:00,26.1,21.4,30.18,NNW,330,0.0,0.0,82,0.00,CLR,,0.02,WeatherDisplay:10.37,2013-01-01 22:42:00,
2013-01-01 17:44:00,26.0,21.0,30.17,NNW,330,1.0,1.0,81,0.00,CLR,,0.02,WeatherDisplay:10.37,2013-01-01 22:44:00,
2013-01-01 17:45:00,26.0,21.3,30.18,NNW,330,1.1,1.1,82,0.00,CLR,,0.02,WeatherDisplay:10.37,2013-01-01 22:45:00,
2013-01-01 17:47:00,26.0,21.3,30.18,NNW,330,1.1,0.0,82,0.00,CLR,,0.02,WeatherDisplay:10.37,2013-01-01 22:47:00,
2013-01-01 17:48:00,26.0,21.3,30.18,NNW,330,0.0,0.0,82,0.00,CLR,,0.02,WeatherDisplay:10.37,2013-01-01 22:48:00,
2013-01-01 17:49:00,26.0,21.5,30.18,NNW,330,0.0,0.0,83,0.00,CLR,,0.02,WeatherDisplay:10.37,2013-01-01 22:49:00,
2013-01-01 17:51:00,26.0,21.5,30.18,NNW,330,0.0,0.0,83,0.00,CLR,,0.02,WeatherDisplay:10.37,2013-01-01 22:51:00,
2013-01-01 17:52:00,26.0,21.5,30.18,NNW,330,0.0,0.0,83,0.00,CLR,,0.02,WeatherDisplay:10.37,2013-01-01 22:52:00,
2013-01-01 17:53:00,26.0,21.5,30.18,NNW,330,0.0,0.0,83,0.00,CLR,,0.02,WeatherDisplay:10.37,2013-01-01 22:53:00,
2013-01-01 17:54:00,26.0,21.5,30.17,NNW,330,2.0,2.0,83,0.00,CLR,,0.02,WeatherDisplay:10.37,2013-01-01 22:54:00,
2013-01-01 17:56:00,26.1,21.6,30.17,NNW,330,2.3,2.3,83,0.00,CLR,,0.02,WeatherDisplay:10.37,2013-01-01 22:56:00,
2013-01-01 17:57:00,26.1,21.6,30.17,NNW,330,2.3,2.3,83,0.00,CLR,,0.02,WeatherDisplay:10.37,2013-01-01 22:57:00,
2013-01-01 17:58:00,26.1,21.6,30.18,NNW,330,2.3,2.3,83,0.00,CLR,,0.02,WeatherDisplay:10.37,2013-01-01 22:58:00,
2013-01-01 17:59:00,26.2,21.5,30.18,NNW,330,2.3,2.3,82,0.00,CLR,,0.02,WeatherDisplay:10.37,2013-01-01 22:59:00,
2013-01-01 18:01:00,26.2,21.5,30.18,NNW,330,2.3,2.3,82,0.00,CLR,,0.02,WeatherDisplay:10.37,2013-01-01 23:01:00,
2013-01-01 18:02:00,26.2,21.5,30.18,NNW,330,2.3,2.3,82,0.00,CLR,,0.02,WeatherDisplay:10.37,2013-01-01 23:02:00,
2013-01-01 18:03:00,26.2,21.5,30.18,NNW,330,1.1,1.1,82,0.00,CLR,,0.02,WeatherDisplay:10.37,2013-01-01 23:03:00,
2013-01-01 18:05:00,26.2,21.5,30.18,NW,323,2.3,2.3,82,0.00,CLR,,0.02,WeatherDisplay:10.37,2013-01-01 23:05:00,
2013-01-01 18:06:00,26.2,21.2,30.18,NW,323,3.5,3.5,81,0.00,CLR,,0.02,WeatherDisplay:10.37,2013-01-01 23:06:00,
2013-01-01 18:07:00,26.1,21.1,30.18,NNW,329,4.0,4.0,81,0.00,CLR,,0.02,WeatherDisplay:10.37,2013-01-01 23:07:00,
2013-01-01 18:08:00,26.1,21.1,30.18,NNW,344,3.5,3.5,81,0.00,CLR,,0.02,WeatherDisplay:10.37,2013-01-01 23:08:00,
2013-01-01 18:10:00,26.1,21.1,30.18,NNW,331,3.5,3.5,81,0.00,CLR,,0.02,WeatherDisplay:10.37,2013-01-01 23:10:00,
2013-01-01 18:11:00,26.2,21.2,30.18,NNW,336,3.5,3.5,81,0.00,CLR,,0.02,WeatherDisplay:10.37,2013-01-01 23:11:00,
2013-01-01 18:12:00,26.2,21.2,30.19,NW,318,4.6,4.6,81,0.00,CLR,,0.02,WeatherDisplay:10.37,2013-01-01 23:12:00,
2013-01-01 18:14:00,26.2,21.2,30.19,NW,320,5.0,5.0,81,0.00,CLR,,0.02,WeatherDisplay:10.37,2013-01-01 23:14:00,
2013-01-01 18:15:00,26.2,21.2,30.18,NNW,330,4.6,4.6,81,0.00,CLR,,0.02,WeatherDisplay:10.37,2013-01-01 23:15:00,
2013-01-01 18:16:00,26.2,21.2,30.18,NW,311,3.0,3.0,81,0.00,CLR,,0.02,WeatherDisplay:10.37,2013-01-01 23:16:00,
2013-01-01 18:18:00,26.1,21.1,30.18,NW,320,3.5,3.5,81,0.00,CLR,,0.02,WeatherDisplay:10.37,2013-01-01 23:18:00,
2013-01-01 18:19:00,26.1,21.1,30.18,NNW,338,4.6,4.6,81,0.00,CLR,,0.02,WeatherDisplay:10.37,2013-01-01 23:19:00,
2013-01-01 18:20:00,26.1,21.0,30.18,NNW,330,1.0,5.0,81,0.00,CLR,,0.02,WeatherDisplay:10.37,2013-01-01 23:20:00,
2013-01-01 18:21:00,25.9,20.9,30.18,NNW,331,3.5,3.5,81,0.00,CLR,,0.02,WeatherDisplay:10.37,2013-01-01 23:21:00,
2013-01-01 18:23:00,25.8,20.8,30.18,NW,326,4.6,4.6,81,0.00,CLR,,0.02,WeatherDisplay:10.37,2013-01-01 23:23:00,
2013-01-01 18:24:00,25.7,20.7,30.19,NNW,332,3.5,3.5,81,0.00,CLR,,0.02,WeatherDisplay:10.37,2013-01-01 23:24:00,
2013-01-01 18:25:00,25.7,20.7,30.18,NNW,329,3.5,3.5,81,0.00,CLR,,0.02,WeatherDisplay:10.37,2013-01-01 23:25:00,
2013-01-01 18:27:00,25.5,20.5,30.18,NW,323,4.6,4.6,81,0.00,CLR,,0.02,WeatherDisplay:10.37,2013-01-01 23:27:00,
2013-01-01 18:28:00,25.4,20.7,30.18,NW,323,3.5,3.5,82,0.00,CLR,,0.02,WeatherDisplay:10.37,2013-01-01 23:28:00,
2013-01-01 18:29:00,25.3,20.6,30.18,NW,321,4.0,4.0,82,0.00,CLR,,0.02,WeatherDisplay:10.37,2013-01-01 23:29:00,
2013-01-01 18:30:00,25.2,20.2,30.18,NW,326,3.5,3.5,81,0.00,CLR,,0.02,WeatherDisplay:10.37,2013-01-01 23:30:00,
2013-01-01 18:32:00,25.1,20.4,30.18,NNW,327,3.5,3.5,82,0.00,CLR,,0.02,WeatherDisplay:10.37,2013-01-01 23:32:00,
2013-01-01 18:33:00,25.0,20.3,30.18,WNW,288,4.6,4.6,82,0.00,CLR,,0.02,WeatherDisplay:10.37,2013-01-01 23:33:00,
2013-01-01 18:34:00,24.9,20.2,30.18,NW,324,3.5,3.5,82,0.00,CLR,,0.02,WeatherDisplay:10.37,2013-01-01 23:34:00,
2013-01-01 18:35:00,24.8,20.1,30.18,NNW,331,3.5,3.5,82,0.00,CLR,,0.02,WeatherDisplay:10.37,2013-01-01 23:35:00,
2013-01-01 18:37:00,24.7,20.0,30.18,NNW,327,3.5,3.5,82,0.00,CLR,,0.02,WeatherDisplay:10.37,2013-01-01 23:37:00,
2013-01-01 18:38:00,24.6,20.2,30.18,NW,325,3.5,3.5,83,0.00,CLR,,0.02,WeatherDisplay:10.37,2013-01-01 23:38:00,
2013-01-01 18:40:00,24.5,19.8,30.18,NW,312,3.5,3.5,82,0.00,CLR,,0.02,WeatherDisplay:10.37,2013-01-01 23:40:00,
2013-01-01 18:42:00,24.4,20.0,30.18,NNW,327,4.6,4.6,83,0.00,CLR,,0.02,WeatherDisplay:10.37,2013-01-01 23:42:00,
2013-01-01 18:43:00,24.4,20.0,30.18,NNW,336,3.5,3.5,83,0.00,CLR,,0.02,WeatherDisplay:10.37,2013-01-01 23:43:00,
2013-01-01 18:45:00,24.3,19.9,30.18,NW,309,3.5,3.5,83,0.00,CLR,,0.02,WeatherDisplay:10.37,2013-01-01 23:45:00,
2013-01-01 18:46:00,24.3,19.9,30.18,NW,311,3.5,3.5,83,0.00,CLR,,0.02,WeatherDisplay:10.37,2013-01-01 23:46:00,
2013-01-01 18:47:00,24.2,19.8,30.19,NW,319,4.0,4.0,83,0.00,CLR,,0.02,WeatherDisplay:10.37,2013-01-01 23:47:00,
2013-01-01 18:49:00,24.1,19.7,30.19,NW,323,4.0,4.0,83,0.00,CLR,,0.02,WeatherDisplay:10.37,2013-01-01 23:49:00,
2013-01-01 18:50:00,24.1,19.7,30.19,NNW,335,4.6,4.6,83,0.00,CLR,,0.02,WeatherDisplay:10.37,2013-01-01 23:50:00,
2013-01-01 18:51:00,24.0,19.6,30.19,NW,315,3.5,3.5,83,0.00,CLR,,0.02,WeatherDisplay:10.37,2013-01-01 23:51:00,
2013-01-01 18:52:00,24.0,19.6,30.19,North,355,3.5,3.5,83,0.00,CLR,,0.02,WeatherDisplay:10.37,2013-01-01 23:52:00,
2013-01-01 18:54:00,24.0,19.6,30.19,NNW,347,3.5,3.5,83,0.00,CLR,,0.02,WeatherDisplay:10.37,2013-01-01 23:54:00,
2013-01-01 18:55:00,23.9,19.5,30.19,NW,323,3.5,3.5,83,0.00,CLR,,0.02,WeatherDisplay:10.37,2013-01-01 23:55:00,
2013-01-01 18:56:00,23.9,19.5,30.19,NNW,329,3.5,3.5,83,0.00,CLR,,0.02,WeatherDisplay:10.37,2013-01-01 23:56:00,
2013-01-01 18:57:00,23.9,19.5,30.19,North,355,2.3,2.3,83,0.00,CLR,,0.02,WeatherDisplay:10.37,2013-01-01 23:57:00,
2013-01-01 18:59:00,23.8,19.4,30.19,NNW,330,2.3,2.3,83,0.00,CLR,,0.02,WeatherDisplay:10.37,2013-01-01 23:59:00,
2013-01-01 19:00:00,23.8,19.4,30.19,NNW,342,2.3,2.3,83,0.00,CLR,,0.02,WeatherDisplay:10.37,2013-01-02 00:00:00,
2013-01-01 19:01:00,23.7,19.3,30.19,NNW,330,2.3,2.3,83,0.00,CLR,,0.02,WeatherDisplay:10.37,2013-01-02 00:01:00,
2013-01-01 19:02:00,23.6,19.2,30.19,NNW,334,3.5,3.5,83,0.00,CLR,,0.02,WeatherDisplay:10.37,2013-01-02 00:02:00,
2013-01-01 19:05:00,23.4,19.0,30.19,NNW,329,3.5,3.5,83,0.00,CLR,,0.02,WeatherDisplay:10.37,2013-01-02 00:05:00,
2013-01-01 19:06:00,23.4,19.0,30.19,NNW,330,3.5,3.5,83,0.00,CLR,,0.02,WeatherDisplay:10.37,2013-01-02 00:06:00,
2013-01-01 19:08:00,23.3,18.9,30.19,NNW,329,3.5,3.5,83,0.00,CLR,,0.02,WeatherDisplay:10.37,2013-01-02 00:08:00,
2013-01-01 19:10:00,23.1,18.7,30.19,NNW,333,3.5,3.5,83,0.00,CLR,,0.02,WeatherDisplay:10.37,2013-01-02 00:10:00,
2013-01-01 19:11:00,23.1,18.7,30.19,NW,325,3.5,3.5,83,0.00,CLR,,0.02,WeatherDisplay:10.37,2013-01-02 00:11:00,
2013-01-01 19:13:00,23.0,18.9,30.19,NW,323,2.3,2.3,84,0.00,CLR,,0.02,WeatherDisplay:10.37,2013-01-02 00:13:00,
2013-01-01 19:15:00,22.9,18.8,30.19,NW,322,2.3,2.3,84,0.00,CLR,,0.02,WeatherDisplay:10.37,2013-01-02 00:15:00,
2013-01-01 19:16:00,22.9,19.1,30.19,NW,321,3.5,3.5,85,0.00,CLR,,0.02,WeatherDisplay:10.37,2013-01-02 00:16:00,
2013-01-01 19:18:00,22.8,18.7,30.19,NW,321,3.5,3.5,84,0.00,CLR,,0.02,WeatherDisplay:10.37,2013-01-02 00:18:00,
2013-01-01 19:20:00,22.7,18.9,30.20,NW,322,2.3,2.3,85,0.00,CLR,,0.02,WeatherDisplay:10.37,2013-01-02 00:20:00,
2013-01-01 19:21:00,22.7,18.9,30.20,North,350,4.0,4.0,85,0.00,CLR,,0.02,WeatherDisplay:10.37,2013-01-02 00:21:00,
2013-01-01 19:23:00,22.8,19.0,30.20,NW,326,3.5,3.5,85,0.00,CLR,,0.02,WeatherDisplay:10.37,2013-01-02 00:23:00,
2013-01-01 19:25:00,22.8,19.2,30.20,NW,318,3.5,3.5,86,0.00,CLR,,0.02,WeatherDisplay:10.37,2013-01-02 00:25:00,
2013-01-01 19:26:00,22.8,19.0,30.20,NW,323,3.5,3.5,85,0.00,CLR,,0.02,WeatherDisplay:10.37,2013-01-02 00:26:00,
2013-01-01 19:27:00,22.8,19.0,30.20,NNW,328,3.5,3.5,85,0.00,CLR,,0.02,WeatherDisplay:10.37,2013-01-02 00:27:00,
2013-01-01 19:29:00,22.8,19.0,30.20,NW,324,3.5,3.5,85,0.00,CLR,,0.02,WeatherDisplay:10.37,2013-01-02 00:29:00,
2013-01-01 19:30:00,22.8,19.0,30.20,NNW,332,3.5,3.5,85,0.00,CLR,,0.02,WeatherDisplay:10.37,2013-01-02 00:30:00,
2013-01-01 19:32:00,22.8,18.7,30.21,NNW,331,2.3,2.3,84,0.00,CLR,,0.02,WeatherDisplay:10.37,2013-01-02 00:32:00,
2013-01-01 19:34:00,22.7,18.6,30.21,NNW,335,3.5,3.5,84,0.00,CLR,,0.02,WeatherDisplay:10.37,2013-01-02 00:34:00,
2013-01-01 19:35:00,22.7,18.6,30.21,NNW,331,2.3,2.3,84,0.00,CLR,,0.02,WeatherDisplay:10.37,2013-01-02 00:35:00,
2013-01-01 19:37:00,22.6,18.5,30.21,NNW,331,2.3,2.3,84,0.00,CLR,,0.02,WeatherDisplay:10.37,2013-01-02 00:37:00,
2013-01-01 19:39:00,22.5,18.4,30.21,NNW,331,2.3,2.3,84,0.00,CLR,,0.02,WeatherDisplay:10.37,2013-01-02 00:39:00,
2013-01-01 19:41:00,22.5,18.4,30.21,NNW,330,3.5,3.5,84,0.00,CLR,,0.02,WeatherDisplay:10.37,2013-01-02 00:41:00,
2013-01-01 19:42:00,22.5,18.4,30.21,NNW,330,1.1,1.1,84,0.00,CLR,,0.02,WeatherDisplay:10.37,2013-01-02 00:42:00,
2013-01-01 19:43:00,22.4,18.3,30.21,NNW,330,1.1,1.1,84,0.00,CLR,,0.02,WeatherDisplay:10.37,2013-01-02 00:43:00,
2013-01-01 19:45:00,22.3,18.2,30.21,NW,324,3.5,3.5,84,0.00,CLR,,0.02,WeatherDisplay:10.37,2013-01-02 00:45:00,
2013-01-01 19:46:00,22.2,18.1,30.21,NW,316,2.3,2.3,84,0.00,CLR,,0.02,WeatherDisplay:10.37,2013-01-02 00:46:00,
2013-01-01 19:47:00,22.2,18.1,30.21,NW,318,3.5,3.5,84,0.00,CLR,,0.02,WeatherDisplay:10.37,2013-01-02 00:47:00,
2013-01-01 19:48:00,22.2,18.4,30.22,NW,304,3.5,3.5,85,0.00,CLR,,0.02,WeatherDisplay:10.37,2013-01-02 00:48:00,
2013-01-01 19:50:00,22.2,18.4,30.22,NW,317,2.0,4.0,85,0.00,CLR,,0.02,WeatherDisplay:10.37,2013-01-02 00:50:00,
2013-01-01 19:51:00,22.2,18.1,30.22,NW,310,5.8,5.8,84,0.00,CLR,,0.02,WeatherDisplay:10.37,2013-01-02 00:51:00,
2013-01-01 19:52:00,22.3,18.2,30.22,NW,321,5.8,5.8,84,0.00,CLR,,0.02,WeatherDisplay:10.37,2013-01-02 00:52:00,
2013-01-01 19:54:00,22.3,18.2,30.22,NW,308,3.5,3.5,84,0.00,CLR,,0.02,WeatherDisplay:10.37,2013-01-02 00:54:00,
2013-01-01 19:55:00,22.2,18.1,30.22,NW,316,3.5,3.5,84,0.00,CLR,,0.02,WeatherDisplay:10.37,2013-01-02 00:55:00,
2013-01-01 19:56:00,22.2,18.1,30.22,NW,313,3.5,3.5,84,0.00,CLR,,0.02,WeatherDisplay:10.37,2013-01-02 00:56:00,
2013-01-01 19:57:00,22.2,18.1,30.22,NW,312,3.5,3.5,84,0.00,CLR,,0.02,WeatherDisplay:10.37,2013-01-02 00:57:00,
2013-01-01 19:59:00,22.1,18.0,30.22,NW,310,3.5,3.5,84,0.00,CLR,,0.02,WeatherDisplay:10.37,2013-01-02 00:59:00,
2013-01-01 20:00:00,22.1,18.0,30.22,NW,306,3.5,3.5,84,0.00,CLR,,0.02,WeatherDisplay:10.37,2013-01-02 01:00:00,
2013-01-01 20:01:00,22.1,18.0,30.22,NW,306,2.3,2.3,84,0.00,CLR,,0.02,WeatherDisplay:10.37,2013-01-02 01:01:00,
2013-01-01 20:03:00,22.1,18.0,30.22,NW,305,3.5,3.5,84,0.00,CLR,,0.02,WeatherDisplay:10.37,2013-01-02 01:03:00,
2013-01-01 20:04:00,22.1,18.0,30.22,NW,304,3.5,3.5,84,0.00,CLR,,0.02,WeatherDisplay:10.37,2013-01-02 01:04:00,
2013-01-01 20:05:00,22.1,18.0,30.22,NW,306,4.6,4.6,84,0.00,CLR,,0.02,WeatherDisplay:10.37,2013-01-02 01:05:00,
2013-01-01 20:06:00,22.1,18.0,30.22,NW,307,3.5,3.5,84,0.00,CLR,,0.02,WeatherDisplay:10.37,2013-01-02 01:06:00,
2013-01-01 20:08:00,22.1,18.0,30.22,NW,304,2.3,2.3,84,0.00,CLR,,0.02,WeatherDisplay:10.37,2013-01-02 01:08:00,
2013-01-01 20:10:00,22.1,18.0,30.22,NW,306,4.0,4.0,84,0.00,CLR,,0.02,WeatherDisplay:10.37,2013-01-02 01:10:00,
2013-01-01 20:12:00,22.2,18.1,30.22,NW,306,2.3,2.3,84,0.00,CLR,,0.02,WeatherDisplay:10.37,2013-01-02 01:12:00,
2013-01-01 20:13:00,22.2,18.1,30.22,NW,304,3.5,3.5,84,0.00,CLR,,0.02,WeatherDisplay:10.37,2013-01-02 01:13:00,
2013-01-01 20:15:00,22.1,18.0,30.22,NW,304,3.5,3.5,84,0.00,CLR,,0.02,WeatherDisplay:10.37,2013-01-02 01:15:00,
2013-01-01 20:16:00,22.1,18.0,30.22,NW,308,3.5,3.5,84,0.00,CLR,,0.02,WeatherDisplay:10.37,2013-01-02 01:16:00,
2013-01-01 20:18:00,22.1,18.0,30.22,NW,310,3.5,3.5,84,0.00,CLR,,0.02,WeatherDisplay:10.37,2013-01-02 01:18:00,
2013-01-01 20:20:00,22.1,18.0,30.22,NW,321,3.5,3.5,84,0.00,CLR,,0.02,WeatherDisplay:10.37,2013-01-02 01:20:00,
2013-01-01 20:21:00,22.1,17.7,30.22,NW,308,3.5,3.5,83,0.00,CLR,,0.02,WeatherDisplay:10.37,2013-01-02 01:21:00,
2013-01-01 20:23:00,22.0,17.6,30.22,NW,317,3.0,3.0,83,0.00,CLR,,0.02,WeatherDisplay:10.37,2013-01-02 01:23:00,
2013-01-01 20:25:00,21.8,17.4,30.22,NW,317,1.1,1.1,83,0.00,CLR,,0.02,WeatherDisplay:10.37,2013-01-02 01:25:00,
2013-01-01 20:26:00,21.7,17.3,30.22,WNW,300,4.0,4.0,83,0.00,CLR,,0.02,WeatherDisplay:10.37,2013-01-02 01:26:00,
2013-01-01 20:28:00,21.7,17.6,30.22,WNW,303,3.5,3.5,84,0.00,CLR,,0.02,WeatherDisplay:10.37,2013-01-02 01:28:00,
2013-01-01 20:30:00,21.7,17.6,30.22,NW,304,2.3,2.3,84,0.00,CLR,,0.02,WeatherDisplay:10.37,2013-01-02 01:30:00,
2013-01-01 20:31:00,21.6,17.5,30.22,NW,312,3.5,3.5,84,0.00,CLR,,0.02,WeatherDisplay:10.37,2013-01-02 01:31:00,
2013-01-01 20:33:00,21.6,17.5,30.23,NW,306,3.5,3.5,84,0.00,CLR,,0.02,WeatherDisplay:10.37,2013-01-02 01:33:00,
2013-01-01 20:35:00,21.6,17.5,30.23,WNW,303,2.3,2.3,84,0.00,CLR,,0.02,WeatherDisplay:10.37,2013-01-02 01:35:00,
2013-01-01 20:36:00,21.6,17.5,30.23,WNW,303,2.3,2.3,84,0.00,CLR,,0.02,WeatherDisplay:10.37,2013-01-02 01:36:00,
2013-01-01 20:38:00,21.7,17.6,30.23,WNW,303,2.3,2.3,84,0.00,CLR,,0.02,WeatherDisplay:10.37,2013-01-02 01:38:00,
2013-01-01 20:40:00,21.7,17.6,30.23,WNW,302,2.3,2.3,84,0.00,CLR,,0.02,WeatherDisplay:10.37,2013-01-02 01:40:00,
2013-01-01 20:41:00,21.7,17.6,30.23,WNW,302,3.5,3.5,84,0.00,CLR,,0.02,WeatherDisplay:10.37,2013-01-02 01:41:00,
2013-01-01 20:43:00,21.6,17.5,30.23,WNW,302,1.1,0.0,84,0.00,CLR,,0.02,WeatherDisplay:10.37,2013-01-02 01:43:00,
2013-01-01 20:44:00,21.6,17.5,30.23,WNW,302,1.1,1.1,84,0.00,CLR,,0.02,WeatherDisplay:10.37,2013-01-02 01:44:00,
2013-01-01 20:45:00,21.6,17.5,30.23,NW,313,3.5,3.5,84,0.00,CLR,,0.02,WeatherDisplay:10.37,2013-01-02 01:45:00,
2013-01-01 20:46:00,21.5,17.4,30.23,NW,312,3.5,3.5,84,0.00,CLR,,0.02,WeatherDisplay:10.37,2013-01-02 01:46:00,
2013-01-01 20:48:00,21.5,17.4,30.23,NW,312,2.3,2.3,84,0.00,CLR,,0.02,WeatherDisplay:10.37,2013-01-02 01:48:00,
2013-01-01 20:49:00,21.5,17.4,30.22,NW,312,2.3,2.3,84,0.00,CLR,,0.02,WeatherDisplay:10.37,2013-01-02 01:49:00,
2013-01-01 20:50:00,21.4,17.0,30.22,NW,312,1.1,1.1,83,0.00,CLR,,0.02,WeatherDisplay:10.37,2013-01-02 01:50:00,
2013-01-01 20:52:00,21.4,17.0,30.22,NW,312,2.3,2.3,83,0.00,CLR,,0.02,WeatherDisplay:10.37,2013-01-02 01:52:00,
2013-01-01 20:54:00,21.3,17.2,30.22,NW,312,2.3,2.3,84,0.00,CLR,,0.02,WeatherDisplay:10.37,2013-01-02 01:54:00,
2013-01-01 20:56:00,21.2,17.1,30.22,NW,312,2.3,2.3,84,0.00,CLR,,0.02,WeatherDisplay:10.37,2013-01-02 01:56:00,
2013-01-01 20:57:00,21.2,17.1,30.22,NW,312,1.1,1.1,84,0.00,CLR,,0.02,WeatherDisplay:10.37,2013-01-02 01:57:00,
2013-01-01 20:59:00,21.2,17.4,30.22,NW,312,1.1,1.1,85,0.00,CLR,,0.02,WeatherDisplay:10.37,2013-01-02 01:59:00,
2013-01-01 21:01:00,21.1,17.3,30.22,NW,312,3.5,3.5,85,0.00,CLR,,0.02,WeatherDisplay:10.37,2013-01-02 02:01:00,
2013-01-01 21:02:00,21.0,17.2,30.22,NW,312,2.3,2.3,85,0.00,CLR,,0.02,WeatherDisplay:10.37,2013-01-02 02:02:00,
2013-01-01 21:04:00,21.0,17.2,30.22,NW,312,1.1,0.0,85,0.00,CLR,,0.02,WeatherDisplay:10.37,2013-01-02 02:04:00,
2013-01-01 21:06:00,20.9,17.1,30.22,NW,312,0.0,0.0,85,0.00,CLR,,0.02,WeatherDisplay:10.37,2013-01-02 02:06:00,
2013-01-01 21:07:00,20.8,17.0,30.22,NW,312,1.1,1.1,85,0.00,CLR,,0.02,WeatherDisplay:10.37,2013-01-02 02:07:00,
2013-01-01 21:09:00,20.7,16.9,30.22,NW,312,0.0,0.0,85,0.00,CLR,,0.02,WeatherDisplay:10.37,2013-01-02 02:09:00,
2013-01-01 21:10:00,20.6,16.8,30.22,NW,312,0.0,0.0,85,0.00,CLR,,0.02,WeatherDisplay:10.37,2013-01-02 02:10:00,
2013-01-01 21:11:00,20.6,16.8,30.22,NW,312,0.0,0.0,85,0.00,CLR,,0.02,WeatherDisplay:10.37,2013-01-02 02:11:00,
2013-01-01 21:12:00,20.4,16.6,30.22,NW,312,0.0,0.0,85,0.00,CLR,,0.02,WeatherDisplay:10.37,2013-01-02 02:12:00,
2013-01-01 21:14:00,20.3,16.5,30.22,NW,312,0.0,0.0,85,0.00,CLR,,0.02,WeatherDisplay:10.37,2013-01-02 02:14:00,
2013-01-01 21:15:00,20.3,16.5,30.22,NW,312,0.0,0.0,85,0.00,CLR,,0.02,WeatherDisplay:10.37,2013-01-02 02:15:00,
2013-01-01 21:16:00,20.2,16.4,30.22,NW,312,0.0,0.0,85,0.00,CLR,,0.02,WeatherDisplay:10.37,2013-01-02 02:16:00,
2013-01-01 21:18:00,20.1,16.3,30.22,NW,312,0.0,0.0,85,0.00,CLR,,0.02,WeatherDisplay:10.37,2013-01-02 02:18:00,
2013-01-01 21:19:00,20.0,16.2,30.22,NW,312,0.0,0.0,85,0.00,CLR,,0.02,WeatherDisplay:10.37,2013-01-02 02:19:00,
2013-01-01 21:20:00,20.0,15.9,30.22,NW,312,0.0,0.0,84,0.00,CLR,,0.02,WeatherDisplay:10.37,2013-01-02 02:20:00,
2013-01-01 21:21:00,19.9,15.8,30.22,NW,312,0.0,0.0,84,0.00,CLR,,0.02,WeatherDisplay:10.37,2013-01-02 02:21:00,
2013-01-01 21:23:00,19.8,15.7,30.22,NW,312,0.0,0.0,84,0.00,CLR,,0.02,WeatherDisplay:10.37,2013-01-02 02:23:00,
2013-01-01 21:24:00,19.7,15.6,30.22,NW,312,0.0,0.0,84,0.00,CLR,,0.02,WeatherDisplay:10.37,2013-01-02 02:24:00,
2013-01-01 21:25:00,19.6,15.6,30.22,NW,312,0.0,0.0,84,0.00,CLR,,0.02,WeatherDisplay:10.37,2013-01-02 02:25:00,
2013-01-01 21:27:00,19.5,15.5,30.22,NW,312,0.0,0.0,84,0.00,CLR,,0.02,WeatherDisplay:10.37,2013-01-02 02:27:00,
2013-01-01 21:28:00,19.4,15.4,30.22,NW,312,0.0,0.0,84,0.00,CLR,,0.02,WeatherDisplay:10.37,2013-01-02 02:28:00,
2013-01-01 21:30:00,19.3,15.5,30.22,NW,312,0.0,0.0,85,0.00,CLR,,0.02,WeatherDisplay:10.37,2013-01-02 02:30:00,
2013-01-01 21:32:00,19.1,15.3,30.22,NW,312,1.1,1.1,85,0.00,CLR,,0.02,WeatherDisplay:10.37,2013-01-02 02:32:00,
2013-01-01 21:33:00,19.1,15.6,30.22,NW,312,2.3,2.3,86,0.00,CLR,,0.02,WeatherDisplay:10.37,2013-01-02 02:33:00,
2013-01-01 21:35:00,19.0,15.8,30.22,NW,312,2.3,2.3,87,0.00,CLR,,0.02,WeatherDisplay:10.37,2013-01-02 02:35:00,
2013-01-01 21:36:00,19.0,15.8,30.22,NW,312,2.3,0.0,87,0.00,CLR,,0.02,WeatherDisplay:10.37,2013-01-02 02:36:00,
2013-01-01 21:37:00,19.0,15.8,30.22,NW,312,1.1,1.1,87,0.00,CLR,,0.02,WeatherDisplay:10.37,2013-01-02 02:37:00,
2013-01-01 21:38:00,19.0,15.8,30.22,NW,312,2.3,2.3,87,0.00,CLR,,0.02,WeatherDisplay:10.37,2013-01-02 02:38:00,
2013-01-01 21:40:00,19.1,16.1,30.22,NW,312,3.5,3.5,88,0.00,CLR,,0.02,WeatherDisplay:10.37,2013-01-02 02:40:00,
2013-01-01 21:41:00,19.0,16.0,30.22,NW,312,3.5,3.5,88,0.00,CLR,,0.02,WeatherDisplay:10.37,2013-01-02 02:41:00,
2013-01-01 21:42:00,19.1,15.9,30.22,NW,312,2.3,2.3,87,0.00,CLR,,0.02,WeatherDisplay:10.37,2013-01-02 02:42:00,
2013-01-01 21:43:00,19.0,15.8,30.22,NW,312,1.1,1.1,87,0.00,CLR,,0.02,WeatherDisplay:10.37,2013-01-02 02:43:00,
2013-01-01 21:45:00,19.0,15.8,30.22,NW,312,1.0,1.0,87,0.00,CLR,,0.02,WeatherDisplay:10.37,2013-01-02 02:45:00,
2013-01-01 21:46:00,19.0,15.8,30.22,NW,312,2.3,2.3,87,0.00,CLR,,0.02,WeatherDisplay:10.37,2013-01-02 02:46:00,
2013-01-01 21:48:00,19.0,16.0,30.22,NW,312,2.3,2.3,88,0.00,CLR,,0.02,WeatherDisplay:10.37,2013-01-02 02:48:00,
2013-01-01 21:51:00,18.9,15.7,30.21,NW,312,1.1,1.1,87,0.00,CLR,,0.02,WeatherDisplay:10.37,2013-01-02 02:51:00,
2013-01-01 21:53:00,18.8,15.6,30.21,NW,312,2.3,2.3,87,0.00,CLR,,0.02,WeatherDisplay:10.37,2013-01-02 02:53:00,
2013-01-01 21:54:00,18.8,15.6,30.21,NW,313,3.5,3.5,87,0.00,CLR,,0.02,WeatherDisplay:10.37,2013-01-02 02:54:00,
2013-01-01 21:56:00,18.8,15.6,30.21,NW,313,2.3,2.3,87,0.00,CLR,,0.02,WeatherDisplay:10.37,2013-01-02 02:56:00,
2013-01-01 21:58:00,18.7,15.5,30.21,NW,313,1.1,0.0,87,0.00,CLR,,0.02,WeatherDisplay:10.37,2013-01-02 02:58:00,
2013-01-01 21:59:00,18.6,15.1,30.21,NW,313,0.0,0.0,86,0.00,CLR,,0.02,WeatherDisplay:10.37,2013-01-02 02:59:00,
2013-01-01 22:01:00,18.5,15.0,30.21,NW,313,0.0,0.0,86,0.00,CLR,,0.02,WeatherDisplay:10.37,2013-01-02 03:01:00,
2013-01-01 22:03:00,18.3,14.5,30.22,NW,313,0.0,0.0,85,0.00,CLR,,0.02,WeatherDisplay:10.37,2013-01-02 03:03:00,
2013-01-01 22:04:00,18.2,14.4,30.22,NW,313,0.0,0.1,85,0.00,CLR,,0.02,WeatherDisplay:10.37,2013-01-02 03:04:00,
2013-01-01 22:06:00,18.1,14.4,30.22,NW,313,0.0,0.0,85,0.00,CLR,,0.02,WeatherDisplay:10.37,2013-01-02 03:06:00,
2013-01-01 22:08:00,17.9,14.4,30.22,NW,313,2.0,2.0,86,0.00,CLR,,0.02,WeatherDisplay:10.37,2013-01-02 03:08:00,
2013-01-01 22:10:00,17.8,14.3,30.22,NW,313,2.3,0.0,86,0.00,CLR,,0.02,WeatherDisplay:10.37,2013-01-02 03:10:00,
2013-01-01 22:11:00,17.7,14.5,30.22,NW,313,0.0,0.0,87,0.00,CLR,,0.02,WeatherDisplay:10.37,2013-01-02 03:11:00,
2013-01-01 22:12:00,17.7,14.5,30.22,NW,313,0.0,0.0,87,0.00,CLR,,0.02,WeatherDisplay:10.37,2013-01-02 03:12:00,
2013-01-01 22:13:00,17.6,14.4,30.22,NW,313,1.1,0.0,87,0.00,CLR,,0.02,WeatherDisplay:10.37,2013-01-02 03:13:00,
2013-01-01 22:15:00,17.5,14.6,30.22,NW,313,0.0,0.0,88,0.00,CLR,,0.02,WeatherDisplay:10.37,2013-01-02 03:15:00,
2013-01-01 22:16:00,17.5,14.8,30.22,NW,313,0.0,0.0,89,0.00,CLR,,0.02,WeatherDisplay:10.37,2013-01-02 03:16:00,
2013-01-01 22:17:00,17.5,14.8,30.22,NW,313,0.0,0.0,89,0.00,CLR,,0.02,WeatherDisplay:10.37,2013-01-02 03:17:00,
2013-01-01 22:18:00,17.5,14.8,30.22,NW,313,0.0,0.0,89,0.00,CLR,,0.02,WeatherDisplay:10.37,2013-01-02 03:18:00,
2013-01-01 22:20:00,17.4,14.7,30.22,NW,313,0.0,0.0,89,0.00,CLR,,0.02,WeatherDisplay:10.37,2013-01-02 03:20:00,
2013-01-01 22:21:00,17.3,14.6,30.22,NW,313,0.0,0.0,89,0.00,CLR,,0.02,WeatherDisplay:10.37,2013-01-02 03:21:00,
2013-01-01 22:22:00,17.3,14.6,30.22,NW,313,0.0,0.0,89,0.00,CLR,,0.02,WeatherDisplay:10.37,2013-01-02 03:22:00,
2013-01-01 22:23:00,17.3,14.6,30.22,NW,313,0.0,0.0,89,0.00,CLR,,0.02,WeatherDisplay:10.37,2013-01-02 03:23:00,
2013-01-01 22:25:00,17.2,14.8,30.22,NW,313,0.0,0.0,90,0.00,CLR,,0.02,WeatherDisplay:10.37,2013-01-02 03:25:00,
2013-01-01 22:27:00,17.2,14.8,30.22,NW,313,0.0,0.0,90,0.00,CLR,,0.02,WeatherDisplay:10.37,2013-01-02 03:27:00,
2013-01-01 22:29:00,17.1,14.7,30.22,NW,313,0.0,0.0,90,0.00,CLR,,0.02,WeatherDisplay:10.37,2013-01-02 03:29:00,
2013-01-01 22:30:00,17.1,14.7,30.22,NW,313,0.0,0.0,90,0.00,CLR,,0.02,WeatherDisplay:10.37,2013-01-02 03:30:00,
2013-01-01 22:32:00,17.0,14.6,30.22,NW,313,0.0,0.0,90,0.00,CLR,,0.02,WeatherDisplay:10.37,2013-01-02 03:32:00,
2013-01-01 22:34:00,16.8,14.1,30.22,NW,313,0.0,0.0,89,0.00,CLR,,0.02,WeatherDisplay:10.37,2013-01-02 03:34:00,
2013-01-01 22:35:00,16.7,14.0,30.21,NW,313,0.0,0.0,89,0.00,CLR,,0.02,WeatherDisplay:10.37,2013-01-02 03:35:00,
2013-01-01 22:37:00,16.5,13.8,30.21,NW,313,0.0,0.0,89,0.00,CLR,,0.02,WeatherDisplay:10.37,2013-01-02 03:37:00,
2013-01-01 22:38:00,16.4,13.7,30.21,NW,313,0.0,0.0,89,0.00,CLR,,0.02,WeatherDisplay:10.37,2013-01-02 03:38:00,
2013-01-01 22:39:00,16.3,13.6,30.21,NW,313,0.0,0.0,89,0.00,CLR,,0.02,WeatherDisplay:10.37,2013-01-02 03:39:00,
2013-01-01 22:40:00,16.2,13.5,30.21,NW,313,0.0,0.0,89,0.00,CLR,,0.02,WeatherDisplay:10.37,2013-01-02 03:40:00,
2013-01-01 22:42:00,16.0,13.3,30.21,NW,313,0.0,0.0,89,0.00,CLR,,0.02,WeatherDisplay:10.37,2013-01-02 03:42:00,
2013-01-01 22:43:00,15.9,13.0,30.21,NW,313,0.0,0.0,88,0.00,CLR,,0.02,WeatherDisplay:10.37,2013-01-02 03:43:00,
2013-01-01 22:44:00,15.7,12.8,30.21,West,265,0.0,0.0,88,0.00,CLR,,0.02,WeatherDisplay:10.37,2013-01-02 03:44:00,
2013-01-01 22:46:00,15.5,12.8,30.21,West,263,0.0,0.0,89,0.00,CLR,,0.02,WeatherDisplay:10.37,2013-01-02 03:46:00,
2013-01-01 22:47:00,15.3,12.4,30.21,West,263,0.0,0.0,88,0.00,CLR,,0.02,WeatherDisplay:10.37,2013-01-02 03:47:00,
2013-01-01 22:48:00,15.2,12.3,30.21,West,263,0.0,0.0,88,0.00,CLR,,0.02,WeatherDisplay:10.37,2013-01-02 03:48:00,
2013-01-01 22:49:00,15.1,12.4,30.21,West,263,0.0,0.0,89,0.00,CLR,,0.02,WeatherDisplay:10.37,2013-01-02 03:49:00,
2013-01-01 22:51:00,14.9,12.2,30.22,West,263,0.0,0.0,89,0.00,CLR,,0.02,WeatherDisplay:10.37,2013-01-02 03:51:00,
2013-01-01 22:52:00,14.8,12.1,30.22,West,263,0.0,0.0,89,0.00,CLR,,0.02,WeatherDisplay:10.37,2013-01-02 03:52:00,
2013-01-01 22:53:00,14.8,12.1,30.22,West,263,0.0,0.0,89,0.00,CLR,,0.02,WeatherDisplay:10.37,2013-01-02 03:53:00,
2013-01-01 22:54:00,14.7,12.0,30.22,West,263,0.0,0.0,89,0.00,CLR,,0.02,WeatherDisplay:10.37,2013-01-02 03:54:00,
2013-01-01 22:56:00,14.6,12.2,30.22,West,263,0.0,0.0,90,0.00,CLR,,0.02,WeatherDisplay:10.37,2013-01-02 03:56:00,
2013-01-01 22:57:00,14.5,12.1,30.22,SW,228,2.0,2.0,90,0.00,CLR,,0.02,WeatherDisplay:10.37,2013-01-02 03:57:00,
2013-01-01 22:58:00,14.5,12.1,30.22,SW,228,2.3,2.3,90,0.00,CLR,,0.02,WeatherDisplay:10.37,2013-01-02 03:58:00,
2013-01-01 22:59:00,14.5,12.1,30.22,SW,227,2.3,2.3,90,0.00,CLR,,0.02,WeatherDisplay:10.37,2013-01-02 03:59:00,
2013-01-01 23:01:00,14.4,12.0,30.22,SW,227,3.0,3.0,90,0.00,CLR,,0.02,WeatherDisplay:10.37,2013-01-02 04:01:00,
2013-01-01 23:02:00,14.4,12.3,30.23,SW,227,3.5,3.5,91,0.00,CLR,,0.02,WeatherDisplay:10.37,2013-01-02 04:02:00,
2013-01-01 23:03:00,14.4,12.3,30.23,SW,227,3.5,3.5,91,0.00,CLR,,0.02,WeatherDisplay:10.37,2013-01-02 04:03:00,
2013-01-01 23:04:00,14.4,12.3,30.23,SW,227,2.3,2.3,91,0.00,CLR,,0.02,WeatherDisplay:10.37,2013-01-02 04:04:00,
2013-01-01 23:06:00,14.4,12.3,30.23,SW,227,2.3,2.3,91,0.00,CLR,,0.02,WeatherDisplay:10.37,2013-01-02 04:06:00,
2013-01-01 23:07:00,14.3,12.2,30.23,SW,227,2.3,2.3,91,0.00,CLR,,0.02,WeatherDisplay:10.37,2013-01-02 04:07:00,
2013-01-01 23:08:00,14.4,12.3,30.23,SW,227,2.3,2.3,91,0.00,CLR,,0.02,WeatherDisplay:10.37,2013-01-02 04:08:00,
2013-01-01 23:09:00,14.3,12.2,30.23,SW,227,2.3,2.3,91,0.00,CLR,,0.02,WeatherDisplay:10.37,2013-01-02 04:09:00,
2013-01-01 23:11:00,14.3,12.2,30.22,SW,227,1.1,1.1,91,0.00,CLR,,0.02,WeatherDisplay:10.37,2013-01-02 04:11:00,
2013-01-01 23:12:00,14.3,12.2,30.22,SW,227,1.1,1.1,91,0.00,CLR,,0.02,WeatherDisplay:10.37,2013-01-02 04:12:00,
2013-01-01 23:13:00,14.3,12.2,30.22,SW,227,1.1,1.1,91,0.00,CLR,,0.02,WeatherDisplay:10.37,2013-01-02 04:13:00,
2013-01-01 23:14:00,14.3,12.2,30.22,SW,227,1.1,1.1,91,0.00,CLR,,0.02,WeatherDisplay:10.37,2013-01-02 04:14:00,
2013-01-01 23:16:00,14.4,12.5,30.23,SW,227,2.3,2.3,92,0.00,CLR,,0.02,WeatherDisplay:10.37,2013-01-02 04:16:00,
2013-01-01 23:18:00,14.4,12.5,30.22,SW,227,2.3,2.3,92,0.00,CLR,,0.02,WeatherDisplay:10.37,2013-01-02 04:18:00,
2013-01-01 23:19:00,14.4,12.5,30.23,SW,227,2.3,2.3,92,0.00,CLR,,0.02,WeatherDisplay:10.37,2013-01-02 04:19:00,
2013-01-01 23:22:00,14.3,12.4,30.23,SW,214,3.0,3.0,92,0.00,CLR,,0.02,WeatherDisplay:10.37,2013-01-02 04:22:00,
2013-01-01 23:23:00,14.3,12.2,30.23,SSW,213,3.5,3.5,91,0.00,CLR,,0.02,WeatherDisplay:10.37,2013-01-02 04:23:00,
2013-01-01 23:24:00,14.3,12.2,30.23,SSW,213,3.5,3.5,91,0.00,CLR,,0.02,WeatherDisplay:10.37,2013-01-02 04:24:00,
2013-01-01 23:25:00,14.2,12.1,30.23,SSW,213,3.5,3.5,91,0.00,CLR,,0.02,WeatherDisplay:10.37,2013-01-02 04:25:00,
2013-01-01 23:27:00,14.2,12.1,30.23,SSW,213,2.3,2.3,91,0.00,CLR,,0.02,WeatherDisplay:10.37,2013-01-02 04:27:00,
2013-01-01 23:28:00,14.2,12.1,30.23,SSW,213,2.3,2.3,91,0.00,CLR,,0.02,WeatherDisplay:10.37,2013-01-02 04:28:00,
2013-01-01 23:29:00,14.1,12.0,30.23,SSW,213,2.3,2.3,91,0.00,CLR,,0.02,WeatherDisplay:10.37,2013-01-02 04:29:00,
2013-01-01 23:30:00,14.1,12.0,30.23,SW,214,1.0,3.0,91,0.00,CLR,,0.02,WeatherDisplay:10.37,2013-01-02 04:30:00,
2013-01-01 23:32:00,14.0,11.6,30.23,SSW,213,2.3,2.3,90,0.00,CLR,,0.02,WeatherDisplay:10.37,2013-01-02 04:32:00,
2013-01-01 23:33:00,13.9,11.5,30.23,SSW,213,0.0,0.0,90,0.00,CLR,,0.02,WeatherDisplay:10.37,2013-01-02 04:33:00,
2013-01-01 23:34:00,13.8,11.4,30.23,SSW,213,0.0,0.0,90,0.00,CLR,,0.02,WeatherDisplay:10.37,2013-01-02 04:34:00,
2013-01-01 23:35:00,13.7,11.3,30.23,SSW,213,0.0,0.0,90,0.00,CLR,,0.02,WeatherDisplay:10.37,2013-01-02 04:35:00,
2013-01-01 23:37:00,13.6,11.2,30.23,SSW,213,0.0,0.0,90,0.00,CLR,,0.02,WeatherDisplay:10.37,2013-01-02 04:37:00,
2013-01-01 23:38:00,13.6,11.2,30.23,SSW,213,0.0,0.0,90,0.00,CLR,,0.02,WeatherDisplay:10.37,2013-01-02 04:38:00,
2013-01-01 23:39:00,13.6,11.5,30.23,SSW,213,0.0,0.0,91,0.00,CLR,,0.02,WeatherDisplay:10.37,2013-01-02 04:39:00,
2013-01-01 23:40:00,13.5,11.4,30.23,SSW,213,0.0,0.0,91,0.00,CLR,,0.02,WeatherDisplay:10.37,2013-01-02 04:40:00,
2013-01-01 23:42:00,13.5,11.4,30.22,SSW,213,0.0,0.0,91,0.00,CLR,,0.02,WeatherDisplay:10.37,2013-01-02 04:42:00,
2013-01-01 23:43:00,13.4,11.3,30.22,SSW,213,0.0,0.0,91,0.00,CLR,,0.02,WeatherDisplay:10.37,2013-01-02 04:43:00,
2013-01-01 23:44:00,13.4,11.3,30.22,SSW,213,0.0,0.0,91,0.00,CLR,,0.02,WeatherDisplay:10.37,2013-01-02 04:44:00,
2013-01-01 23:46:00,13.4,11.3,30.22,SSW,213,0.0,0.0,91,0.00,CLR,,0.02,WeatherDisplay:10.37,2013-01-02 04:46:00,
2013-01-01 23:47:00,13.3,11.2,30.22,SSW,213,0.0,0.0,91,0.00,CLR,,0.02,WeatherDisplay:10.37,2013-01-02 04:47:00,
2013-01-01 23:48:00,13.3,11.2,30.22,SSW,213,0.0,0.0,91,0.00,CLR,,0.02,WeatherDisplay:10.37,2013-01-02 04:48:00,
2013-01-01 23:50:00,13.2,11.1,30.22,SSW,213,0.0,0.0,91,0.00,CLR,,0.02,WeatherDisplay:10.37,2013-01-02 04:50:00,
2013-01-01 23:51:00,13.1,11.0,30.22,SSW,213,0.0,0.0,91,0.00,CLR,,0.02,WeatherDisplay:10.37,2013-01-02 04:51:00,
2013-01-01 23:53:00,13.0,10.9,30.22,SSW,213,0.0,0.0,91,0.00,CLR,,0.02,WeatherDisplay:10.37,2013-01-02 04:53:00,
2013-01-01 23:55:00,13.0,10.9,30.22,SSW,213,0.0,0.0,91,0.00,CLR,,0.02,WeatherDisplay:10.37,2013-01-02 04:55:00,
2013-01-01 23:56:00,12.9,10.8,30.22,SSW,213,0.0,0.0,91,0.00,CLR,,0.02,WeatherDisplay:10.37,2013-01-02 04:56:00,
2013-01-01 23:58:00,12.8,10.7,30.22,SSW,213,0.0,0.0,91,0.00,CLR,,0.02,WeatherDisplay:10.37,2013-01-02 04:58:00,
2013-01-01 23:59:00,12.8,10.7,30.22,SSW,213,0.0,0.0,91,0.00,CLR,,0.02,WeatherDisplay:10.37,2013-01-02 04:59:00,